Observation data for Dozier on 08/14/2019      Previous  Date  Next       Current Mesonet Observations  Soil Data  Daily Summary Page  Observations in Plain Language
KDO1 140500Z 00006KT 24/20 A3015 RMK A01 T02430204  RH  079%=      5-min Rain = 0
KDO1 140501Z 36005KT 24/20 A3015 RMK A01 T02430203  RH  078%=      5-min Rain = 0
KDO1 140502Z 00006KT 24/20 A3015 RMK A01 T02430203  RH  078%=      5-min Rain = 0
KDO1 140503Z 01006KT 24/20 A3015 RMK A01 T02430203  RH  078%=      5-min Rain = 0
KDO1 140504Z 01006KT 24/20 A3015 RMK A01 T02430203  RH  078%=      5-min Rain = 0
KDO1 140505Z 01006KT 24/20 A3015 RMK A01 T02430203  RH  078%=      5-min Rain = 0
KDO1 140506Z 01006KT 24/20 A3015 RMK A01 T02430203  RH  078%=      5-min Rain = 0
KDO1 140507Z 01006KT 24/20 A3015 RMK A01 T02430203  RH  078%=      5-min Rain = 0
KDO1 140508Z 01006KT 24/20 A3015 RMK A01 T02430204  RH  079%=      5-min Rain = 0
KDO1 140509Z 01006KT 24/20 A3015 RMK A01 T02430204  RH  079%=      5-min Rain = 0
KDO1 140510Z 00006KT 24/20 A3015 RMK A01 T02420204  RH  079%=      5-min Rain = 0
KDO1 140527Z 03006KT 24/20 A3016 RMK A01 T02440201  RH  077%=      5-min Rain = 0
KDO1 140528Z 03006KT 25/20 A3016 RMK A01 T02450202  RH  077%=      5-min Rain = 0
KDO1 140529Z 02006KT 25/20 A3016 RMK A01 T02450201  RH  076%=      5-min Rain = 0
KDO1 140530Z 02007KT 25/20 A3016 RMK A01 T02460201  RH  076%=      5-min Rain = 0
KDO1 140531Z 02008KT 25/20 A3017 RMK A01 T02460202  RH  076%=      5-min Rain = 0
KDO1 140532Z 02009KT 25/20 A3017 RMK A01 T02470202  RH  076%=      5-min Rain = 0
KDO1 140533Z 02011G24KT 25/20 A3017 RMK A01 T02470203  RH  076%=      5-min Rain = 0
KDO1 140534Z 02016G25KT 25/20 A3018 RMK A01 T02470202  RH  076%=      5-min Rain = 0
KDO1 140535Z 03013G20KT 25/20 A3017 RMK A01 T02470202  RH  076%=      5-min Rain = 0
KDO1 140536Z 03014G19KT 25/20 A3017 RMK A01 T02470202  RH  076%=      5-min Rain = 0
KDO1 140537Z 03013G19KT 25/20 A3017 RMK A01 T02480202  RH  076%=      5-min Rain = 0
KDO1 140538Z 02011G16KT 25/20 A3017 RMK A01 T02470204  RH  077%=      5-min Rain = 0
KDO1 140539Z 01011KT 25/21 A3017 RMK A01 T02470205  RH  078%=      5-min Rain = 0
KDO1 140540Z 02011G17KT 25/21 A3018 RMK A01 T02450205  RH  078%=      5-min Rain = 0
KDO1 140541Z 02012G19KT 25/21 A3018 RMK A01 T02450205  RH  079%=      5-min Rain = 0
KDO1 140542Z 02014G23KT 24/20 A3018 RMK A01 T02440202  RH  077%=      5-min Rain = 0
KDO1 140543Z 02020G25KT 24/19 A3018 RMK A01 T02420185  RH  070%=      5-min Rain = 0
KDO1 140544Z 02020G26KT 24/17 A3018 RMK A01 T02390171  RH  066%=      5-min Rain = 0
KDO1 140545Z 01016G24KT 24/17 A3018 RMK A01 T02360167  RH  065%=      5-min Rain = 0
KDO1 140546Z 02012KT 23/17 A3017 RMK A01 T02330167  RH  066%=      5-min Rain = 0
KDO1 140547Z 02014G20KT 23/17 A3017 RMK A01 T02320166  RH  066%=      5-min Rain = 0
KDO1 140548Z 03016KT 23/16 A3017 RMK A01 T02300164  RH  066%=      5-min Rain = 0
KDO1 140549Z 02012KT 23/16 A3017 RMK A01 T02290163  RH  066%=      5-min Rain = 0
KDO1 140550Z 02014KT 23/16 A3017 RMK A01 T02290163  RH  066%=      5-min Rain = 0
KDO1 140551Z 02014G19KT 23/16 A3017 RMK A01 T02280162  RH  066%=      5-min Rain = 0
KDO1 140552Z 02013G18KT 23/16 A3018 RMK A01 T02270161  RH  066%=      5-min Rain = 0
KDO1 140553Z 02015G20KT 23/16 A3018 RMK A01 T02270161  RH  066%=      5-min Rain = 0
KDO1 140554Z 02013G18KT 23/16 A3018 RMK A01 T02270161  RH  066%=      5-min Rain = 0
KDO1 140555Z 02015G22KT 23/16 A3018 RMK A01 T02270160  RH  066%=      5-min Rain = 0
KDO1 140556Z 03015G22KT 23/16 A3017 RMK A01 T02270159  RH  065%=      5-min Rain = 0
KDO1 140557Z 03015G20KT 23/16 A3017 RMK A01 T02260158  RH  066%=      5-min Rain = 0
KDO1 140558Z 03012KT 23/16 A3017 RMK A01 T02260158  RH  066%=      5-min Rain = 0
KDO1 140559Z 02014G20KT 23/16 A3017 RMK A01 T02250158  RH  066%=      5-min Rain = 0
KDO1 140600Z 03012G18KT 23/16 A3017 RMK A01 T02250158  RH  066%=      5-min Rain = 0
KDO1 140601Z 02012G17KT 22/16 A3017 RMK A01 T02240157  RH  066%=      5-min Rain = 0
KDO1 140602Z 02015KT 22/16 A3017 RMK A01 T02240157  RH  066%=      5-min Rain = 0
KDO1 140603Z 02014G19KT 22/16 A3017 RMK A01 T02240157  RH  066%=      5-min Rain = 0
KDO1 140604Z 02013KT 22/16 A3017 RMK A01 T02240156  RH  066%=      5-min Rain = 0
KDO1 140605Z 02013G18KT 22/16 A3017 RMK A01 T02230156  RH  066%=      5-min Rain = 0
KDO1 140606Z 02010G15KT 22/16 A3017 RMK A01 T02230156  RH  066%=      5-min Rain = 0
KDO1 140607Z 02011G18KT 22/16 A3017 RMK A01 T02230157  RH  066%=      5-min Rain = 0
KDO1 140608Z 02010KT 22/16 A3017 RMK A01 T02230156  RH  066%=      5-min Rain = 0
KDO1 140609Z 02013G19KT 22/16 A3017 RMK A01 T02220157  RH  066%=      5-min Rain = 0
KDO1 140610Z 02009KT 22/16 A3017 RMK A01 T02220156  RH  066%=      5-min Rain = 0
KDO1 140611Z 02011KT 22/16 A3017 RMK A01 T02210156  RH  067%=      5-min Rain = 0
KDO1 140612Z 02009G14KT 22/16 A3017 RMK A01 T02210156  RH  067%=      5-min Rain = 0
KDO1 140613Z 02009G14KT 22/16 A3017 RMK A01 T02210156  RH  067%=      5-min Rain = 0
KDO1 140614Z 01009KT 22/16 A3016 RMK A01 T02200156  RH  067%=      5-min Rain = 0
KDO1 140615Z 02009KT 22/16 A3016 RMK A01 T02200156  RH  067%=      5-min Rain = 0
KDO1 140616Z 02009KT 22/16 A3016 RMK A01 T02200156  RH  067%=      5-min Rain = 0
KDO1 140617Z 02008KT 22/16 A3016 RMK A01 T02190156  RH  067%=      5-min Rain = 0
KDO1 140618Z 02009G14KT 22/16 A3016 RMK A01 T02190156  RH  067%=      5-min Rain = 0
KDO1 140619Z 01010G15KT 22/16 A3016 RMK A01 T02190156  RH  067%=      5-min Rain = 0
KDO1 140620Z 01010KT 22/16 A3016 RMK A01 T02190156  RH  067%=      5-min Rain = 0
KDO1 140621Z 03008KT 22/16 A3016 RMK A01 T02180155  RH  067%=      5-min Rain = 0
KDO1 140622Z 02008KT 22/16 A3016 RMK A01 T02180155  RH  067%=      5-min Rain = 0
KDO1 140623Z 02008KT 22/16 A3016 RMK A01 T02180155  RH  068%=      5-min Rain = 0
KDO1 140624Z 02010KT 22/16 A3016 RMK A01 T02180156  RH  068%=      5-min Rain = 0
KDO1 140625Z 02008KT 22/16 A3016 RMK A01 T02170155  RH  068%=      5-min Rain = 0
KDO1 140626Z 01008KT 22/16 A3016 RMK A01 T02170156  RH  068%=      5-min Rain = 0
KDO1 140627Z 02008G14KT 22/16 A3016 RMK A01 T02170156  RH  068%=      5-min Rain = 0
KDO1 140628Z 01010G16KT 22/16 A3016 RMK A01 T02170155  RH  068%=      5-min Rain = 0
KDO1 140629Z 01012KT 22/16 A3016 RMK A01 T02170155  RH  068%=      5-min Rain = 0
KDO1 140630Z 01010G16KT 22/15 A3016 RMK A01 T02170154  RH  068%=      5-min Rain = 0
KDO1 140631Z 01011KT 22/15 A3016 RMK A01 T02170154  RH  068%=      5-min Rain = 0
KDO1 140632Z 02009KT 22/16 A3016 RMK A01 T02170155  RH  068%=      5-min Rain = 0
KDO1 140633Z 02008KT 22/16 A3016 RMK A01 T02170156  RH  068%=      5-min Rain = 0
KDO1 140634Z 02009KT 22/16 A3016 RMK A01 T02160156  RH  068%=      5-min Rain = 0
KDO1 140635Z 02009KT 22/16 A3016 RMK A01 T02150155  RH  068%=      5-min Rain = 0
KDO1 140636Z 01009KT 22/16 A3016 RMK A01 T02160155  RH  068%=      5-min Rain = 0
KDO1 140637Z 02010KT 22/16 A3016 RMK A01 T02150155  RH  068%=      5-min Rain = 0
KDO1 140638Z 02012G17KT 22/15 A3016 RMK A01 T02150154  RH  068%=      5-min Rain = 0
KDO1 140639Z 02011KT 22/15 A3016 RMK A01 T02150154  RH  068%=      5-min Rain = 0
KDO1 140640Z 02009G14KT 22/15 A3016 RMK A01 T02150154  RH  068%=      5-min Rain = 0
KDO1 140641Z 02010KT 22/15 A3015 RMK A01 T02150154  RH  068%=      5-min Rain = 0
KDO1 140642Z 02009KT 21/15 A3016 RMK A01 T02140154  RH  068%=      5-min Rain = 0
KDO1 140643Z 01009KT 21/15 A3016 RMK A01 T02140154  RH  068%=      5-min Rain = 0
KDO1 140644Z 01010G15KT 21/15 A3015 RMK A01 T02140153  RH  068%=      5-min Rain = 0
KDO1 140645Z 01011KT 21/15 A3015 RMK A01 T02140154  RH  068%=      5-min Rain = 0
KDO1 140646Z 01009KT 21/15 A3015 RMK A01 T02140153  RH  068%=      5-min Rain = 0
KDO1 140647Z 01009KT 21/15 A3015 RMK A01 T02140154  RH  069%=      5-min Rain = 0
KDO1 140648Z 02009KT 21/15 A3015 RMK A01 T02140154  RH  069%=      5-min Rain = 0
KDO1 140649Z 02007KT 21/15 A3015 RMK A01 T02130154  RH  069%=      5-min Rain = 0
KDO1 140650Z 02006KT 21/15 A3015 RMK A01 T02130154  RH  069%=      5-min Rain = 0
KDO1 140651Z 01008G13KT 21/15 A3015 RMK A01 T02120154  RH  069%=      5-min Rain = 0
KDO1 140652Z 01008KT 21/15 A3015 RMK A01 T02120154  RH  069%=      5-min Rain = 0
KDO1 140653Z 01009KT 21/15 A3015 RMK A01 T02120154  RH  069%=      5-min Rain = 0
KDO1 140654Z 01009KT 21/15 A3015 RMK A01 T02120153  RH  069%=      5-min Rain = 0
KDO1 140655Z 02009KT 21/15 A3015 RMK A01 T02120153  RH  069%=      5-min Rain = 0
KDO1 140656Z 02009KT 21/15 A3015 RMK A01 T02120154  RH  070%=      5-min Rain = 0
KDO1 140657Z 01008KT 21/15 A3015 RMK A01 T02110154  RH  070%=      5-min Rain = 0
KDO1 140658Z 02009KT 21/15 A3015 RMK A01 T02110153  RH  070%=      5-min Rain = 0
KDO1 140659Z 02008KT 21/15 A3015 RMK A01 T02110154  RH  070%=      5-min Rain = 0
KDO1 140700Z 02008KT 21/15 A3015 RMK A01 T02110153  RH  070%=      5-min Rain = 0
KDO1 140701Z 02009KT 21/15 A3015 RMK A01 T02110153  RH  070%=      5-min Rain = 0
KDO1 140702Z 02008KT 21/15 A3015 RMK A01 T02100153  RH  070%=      5-min Rain = 0
KDO1 140703Z 01010KT 21/15 A3015 RMK A01 T02100153  RH  070%=      5-min Rain = 0
KDO1 140704Z 01008KT 21/15 A3015 RMK A01 T02100153  RH  070%=      5-min Rain = 0
KDO1 140705Z 01005KT 21/15 A3015 RMK A01 T02110154  RH  070%=      5-min Rain = 0
KDO1 140706Z 00008KT 21/15 A3015 RMK A01 T02100154  RH  070%=      5-min Rain = 0
KDO1 140707Z 01008KT 21/15 A3015 RMK A01 T02100154  RH  070%=      5-min Rain = 0
KDO1 140708Z 02008G15KT 21/15 A3015 RMK A01 T02100154  RH  070%=      5-min Rain = 0
KDO1 140709Z 01009KT 21/15 A3015 RMK A01 T02100153  RH  070%=      5-min Rain = 0
KDO1 140710Z 01009KT 21/15 A3015 RMK A01 T02100153  RH  070%=      5-min Rain = 0
KDO1 140711Z 01008KT 21/15 A3015 RMK A01 T02100153  RH  070%=      5-min Rain = 0
KDO1 140712Z 01008KT 21/15 A3015 RMK A01 T02100154  RH  070%=      5-min Rain = 0
KDO1 140713Z 02007KT 21/15 A3015 RMK A01 T02090153  RH  070%=      5-min Rain = 0
KDO1 140714Z 02008KT 21/15 A3014 RMK A01 T02090153  RH  070%=      5-min Rain = 0
KDO1 140715Z 02009KT 21/15 A3014 RMK A01 T02090153  RH  070%=      5-min Rain = 0
KDO1 140716Z 02008KT 21/15 A3014 RMK A01 T02100153  RH  070%=      5-min Rain = 0
KDO1 140717Z 02010KT 21/15 A3014 RMK A01 T02100153  RH  070%=      5-min Rain = 0
KDO1 140718Z 02008G13KT 21/15 A3014 RMK A01 T02100153  RH  070%=      5-min Rain = 0
KDO1 140719Z 02008G13KT 21/15 A3014 RMK A01 T02100153  RH  070%=      5-min Rain = 0
KDO1 140720Z 03009KT 21/15 A3014 RMK A01 T02100153  RH  070%=      5-min Rain = 0
KDO1 140721Z 03008KT 21/15 A3014 RMK A01 T02100153  RH  070%=      5-min Rain = 0
KDO1 140722Z 02007KT 21/15 A3014 RMK A01 T02100154  RH  070%=      5-min Rain = 0
KDO1 140723Z 02009KT 21/15 A3014 RMK A01 T02100154  RH  070%=      5-min Rain = 0
KDO1 140724Z 02008KT 21/15 A3014 RMK A01 T02100154  RH  070%=      5-min Rain = 0
KDO1 140725Z 02009KT 21/15 A3014 RMK A01 T02100153  RH  070%=      5-min Rain = 0
KDO1 140726Z 02008G14KT 21/15 A3014 RMK A01 T02100153  RH  070%=      5-min Rain = 0
KDO1 140727Z 02008KT 21/15 A3014 RMK A01 T02100153  RH  070%=      5-min Rain = 0
KDO1 140728Z 02007KT 21/15 A3014 RMK A01 T02110154  RH  070%=      5-min Rain = 0
KDO1 140729Z 01008KT 21/15 A3014 RMK A01 T02110154  RH  070%=      5-min Rain = 0
KDO1 140730Z 02008KT 21/15 A3014 RMK A01 T02100154  RH  070%=      5-min Rain = 0
KDO1 140731Z 02009KT 21/15 A3014 RMK A01 T02100154  RH  070%=      5-min Rain = 0
KDO1 140732Z 02006KT 21/15 A3015 RMK A01 T02100154  RH  070%=      5-min Rain = 0
KDO1 140733Z 02009KT 21/16 A3015 RMK A01 T02100155  RH  071%=      5-min Rain = 0
KDO1 140734Z 02009KT 21/15 A3015 RMK A01 T02100154  RH  070%=      5-min Rain = 0
KDO1 140735Z 01010KT 21/15 A3015 RMK A01 T02100154  RH  071%=      5-min Rain = 0
KDO1 140736Z 01008KT 21/16 A3015 RMK A01 T02100155  RH  071%=      5-min Rain = 0
KDO1 140737Z 02007KT 21/16 A3015 RMK A01 T02090155  RH  071%=      5-min Rain = 0
KDO1 140738Z 02007KT 21/16 A3015 RMK A01 T02090155  RH  071%=      5-min Rain = 0
KDO1 140739Z 02009KT 21/16 A3015 RMK A01 T02090155  RH  071%=      5-min Rain = 0
KDO1 140740Z 02007G12KT 21/16 A3015 RMK A01 T02090155  RH  071%=      5-min Rain = 0
KDO1 140741Z 02007G13KT 21/16 A3014 RMK A01 T02090155  RH  071%=      5-min Rain = 0
KDO1 140742Z 02007KT 21/16 A3014 RMK A01 T02090155  RH  072%=      5-min Rain = 0
KDO1 140743Z 03007KT 21/16 A3014 RMK A01 T02080155  RH  072%=      5-min Rain = 0
KDO1 140744Z 02009KT 21/16 A3014 RMK A01 T02080155  RH  072%=      5-min Rain = 0
KDO1 140745Z 02008KT 21/16 A3014 RMK A01 T02080155  RH  072%=      5-min Rain = 0
KDO1 140746Z 02008KT 21/16 A3014 RMK A01 T02070156  RH  072%=      5-min Rain = 0
KDO1 140747Z 02010KT 21/16 A3014 RMK A01 T02070155  RH  072%=      5-min Rain = 0
KDO1 140748Z 02008KT 21/16 A3014 RMK A01 T02070156  RH  072%=      5-min Rain = 0
KDO1 140749Z 02010KT 21/16 A3014 RMK A01 T02070156  RH  072%=      5-min Rain = 0
KDO1 140750Z 02009KT 21/16 A3014 RMK A01 T02070156  RH  072%=      5-min Rain = 0
KDO1 140751Z 02008KT 21/16 A3014 RMK A01 T02070156  RH  073%=      5-min Rain = 0
KDO1 140752Z 02010KT 21/16 A3014 RMK A01 T02070156  RH  073%=      5-min Rain = 0
KDO1 140753Z 01007KT 21/16 A3014 RMK A01 T02070156  RH  073%=      5-min Rain = 0
KDO1 140754Z 02009KT 21/16 A3014 RMK A01 T02070156  RH  073%=      5-min Rain = 0
KDO1 140755Z 02008KT 21/16 A3014 RMK A01 T02060156  RH  073%=      5-min Rain = 0
KDO1 140756Z 02007KT 21/16 A3014 RMK A01 T02060157  RH  073%=      5-min Rain = 0
KDO1 140757Z 02009KT 21/16 A3014 RMK A01 T02060157  RH  073%=      5-min Rain = 0
KDO1 140758Z 02010KT 21/16 A3014 RMK A01 T02060157  RH  073%=      5-min Rain = 0
KDO1 140759Z 02008KT 21/16 A3014 RMK A01 T02060157  RH  073%=      5-min Rain = 0
KDO1 140800Z 01010KT 21/16 A3014 RMK A01 T02060157  RH  073%=      5-min Rain = 0
KDO1 140801Z 02008KT 21/16 A3014 RMK A01 T02060157  RH  074%=      5-min Rain = 0
KDO1 140802Z 02008G13KT 21/16 A3014 RMK A01 T02050157  RH  074%=      5-min Rain = 0
KDO1 140803Z 01009KT 21/16 A3014 RMK A01 T02050157  RH  074%=      5-min Rain = 0
KDO1 140804Z 01009KT 21/16 A3014 RMK A01 T02050157  RH  074%=      5-min Rain = 0
KDO1 140805Z 01009KT 21/16 A3014 RMK A01 T02050158  RH  074%=      5-min Rain = 0
KDO1 140806Z 36008KT 20/16 A3014 RMK A01 T02040158  RH  074%=      5-min Rain = 0
KDO1 140807Z 00007KT 21/16 A3014 RMK A01 T02050159  RH  075%=      5-min Rain = 0
KDO1 140808Z 00008KT 20/16 A3014 RMK A01 T02040159  RH  075%=      5-min Rain = 0
KDO1 140809Z 00009KT 20/16 A3014 RMK A01 T02040159  RH  075%=      5-min Rain = 0
KDO1 140810Z 00009KT 20/16 A3014 RMK A01 T02030159  RH  075%=      5-min Rain = 0
KDO1 140811Z 01009KT 20/16 A3014 RMK A01 T02030159  RH  076%=      5-min Rain = 0
KDO1 140812Z 00009KT 20/16 A3014 RMK A01 T02030159  RH  076%=      5-min Rain = 0
KDO1 140813Z 01008KT 20/16 A3014 RMK A01 T02030159  RH  076%=      5-min Rain = 0
KDO1 140814Z 01009KT 20/16 A3014 RMK A01 T02030159  RH  076%=      5-min Rain = 0
KDO1 140815Z 01008KT 20/16 A3014 RMK A01 T02030159  RH  076%=      5-min Rain = 0
KDO1 140816Z 00009KT 20/16 A3014 RMK A01 T02030159  RH  076%=      5-min Rain = 0
KDO1 140817Z 02009KT 20/16 A3014 RMK A01 T02030160  RH  076%=      5-min Rain = 0
KDO1 140818Z 00008KT 20/16 A3014 RMK A01 T02030159  RH  076%=      5-min Rain = 0
KDO1 140819Z 01008KT 20/16 A3014 RMK A01 T02020160  RH  076%=      5-min Rain = 0
KDO1 140820Z 01008KT 20/16 A3014 RMK A01 T02020160  RH  076%=      5-min Rain = 0
KDO1 140821Z 00008KT 20/16 A3014 RMK A01 T02020160  RH  076%=      5-min Rain = 0
KDO1 140822Z 01009KT 20/16 A3014 RMK A01 T02020160  RH  077%=      5-min Rain = 0
KDO1 140823Z 01009KT 20/16 A3014 RMK A01 T02020160  RH  077%=      5-min Rain = 0
KDO1 140824Z 01010KT 20/16 A3014 RMK A01 T02010160  RH  077%=      5-min Rain = 0
KDO1 140825Z 00009KT 20/16 A3014 RMK A01 T02020160  RH  077%=      5-min Rain = 0
KDO1 140826Z 01007KT 20/16 A3014 RMK A01 T02020160  RH  077%=      5-min Rain = 0
KDO1 140827Z 00010KT 20/16 A3014 RMK A01 T02020160  RH  077%=      5-min Rain = 0
KDO1 140828Z 00010KT 20/16 A3014 RMK A01 T02020160  RH  077%=      5-min Rain = 0
KDO1 140829Z 00009KT 20/16 A3014 RMK A01 T02020161  RH  077%=      5-min Rain = 0
KDO1 140830Z 00009G14KT 20/16 A3014 RMK A01 T02010161  RH  077%=      5-min Rain = 0
KDO1 140831Z 01009KT 20/16 A3014 RMK A01 T02010161  RH  077%=      5-min Rain = 0
KDO1 140832Z 01008KT 20/16 A3014 RMK A01 T02010161  RH  078%=      5-min Rain = 0
KDO1 140833Z 00008G13KT 20/16 A3014 RMK A01 T02010161  RH  078%=      5-min Rain = 0
KDO1 140834Z 01009KT 20/16 A3014 RMK A01 T02010161  RH  078%=      5-min Rain = 0
KDO1 140835Z 01007KT 20/16 A3014 RMK A01 T02010161  RH  078%=      5-min Rain = 0
KDO1 140836Z 00007KT 20/16 A3014 RMK A01 T02000162  RH  078%=      5-min Rain = 0
KDO1 140837Z 00007KT 20/16 A3014 RMK A01 T02000162  RH  079%=      5-min Rain = 0
KDO1 140838Z 00008KT 20/16 A3014 RMK A01 T02000162  RH  079%=      5-min Rain = 0
KDO1 140839Z 01008KT 20/16 A3014 RMK A01 T01990162  RH  079%=      5-min Rain = 0
KDO1 140840Z 01007KT 20/16 A3014 RMK A01 T01990162  RH  079%=      5-min Rain = 0
KDO1 140841Z 01007KT 20/16 A3014 RMK A01 T01990162  RH  079%=      5-min Rain = 0
KDO1 140842Z 01008KT 20/16 A3014 RMK A01 T01990163  RH  080%=      5-min Rain = 0
KDO1 140843Z 01008KT 20/16 A3014 RMK A01 T01980162  RH  080%=      5-min Rain = 0
KDO1 140844Z 01008KT 20/16 A3014 RMK A01 T01990162  RH  080%=      5-min Rain = 0
KDO1 140845Z 01006KT 20/16 A3014 RMK A01 T01980162  RH  080%=      5-min Rain = 0
KDO1 140846Z 01007KT 20/16 A3014 RMK A01 T01990163  RH  080%=      5-min Rain = 0
KDO1 140847Z 01008KT 20/16 A3014 RMK A01 T01990163  RH  080%=      5-min Rain = 0
KDO1 140848Z 02008KT 20/16 A3015 RMK A01 T01980163  RH  080%=      5-min Rain = 0
KDO1 140849Z 01007KT 20/16 A3015 RMK A01 T01990163  RH  080%=      5-min Rain = 0
KDO1 140850Z 02007KT 20/16 A3015 RMK A01 T01980163  RH  080%=      5-min Rain = 0
KDO1 140851Z 01009KT 20/16 A3015 RMK A01 T01990163  RH  080%=      5-min Rain = 0
KDO1 140852Z 01008KT 20/16 A3015 RMK A01 T01980163  RH  080%=      5-min Rain = 0
KDO1 140853Z 02005KT 20/16 A3014 RMK A01 T01980163  RH  080%=      5-min Rain = 0
KDO1 140854Z 02005KT 20/16 A3014 RMK A01 T01980164  RH  080%=      5-min Rain = 0
KDO1 140855Z 02006KT 20/16 A3014 RMK A01 T01980164  RH  081%=      5-min Rain = 0
KDO1 140856Z 02006KT 20/16 A3015 RMK A01 T01980164  RH  081%=      5-min Rain = 0
KDO1 140857Z 02006KT 20/16 A3015 RMK A01 T01980164  RH  081%=      5-min Rain = 0
KDO1 140858Z 02006KT 20/16 A3015 RMK A01 T01980164  RH  081%=      5-min Rain = 0
KDO1 140859Z 02007KT 20/16 A3015 RMK A01 T01970164  RH  081%=      5-min Rain = 0
KDO1 140900Z 02007KT 20/16 A3015 RMK A01 T01970164  RH  081%=      5-min Rain = 0
KDO1 140901Z 02007KT 20/17 A3015 RMK A01 T01980165  RH  081%=      5-min Rain = 0
KDO1 140902Z 01007KT 20/16 A3015 RMK A01 T01970164  RH  081%=      5-min Rain = 0
KDO1 140903Z 02005KT 20/17 A3015 RMK A01 T01980165  RH  081%=      5-min Rain = 0
KDO1 140904Z 02005KT 20/17 A3015 RMK A01 T01980165  RH  081%=      5-min Rain = 0
KDO1 140905Z 02006KT 20/17 A3015 RMK A01 T01970165  RH  082%=      5-min Rain = 0
KDO1 140906Z 02004KT 20/17 A3015 RMK A01 T01970165  RH  082%=      5-min Rain = 0
KDO1 140907Z 02005KT 20/17 A3015 RMK A01 T01970166  RH  082%=      5-min Rain = 0
KDO1 140908Z 01004KT 20/17 A3015 RMK A01 T01970165  RH  082%=      5-min Rain = 0
KDO1 140909Z 01005KT 20/17 A3015 RMK A01 T01970166  RH  082%=      5-min Rain = 0
KDO1 140910Z 02005KT 20/17 A3015 RMK A01 T01960166  RH  083%=      5-min Rain = 0
KDO1 140911Z 02005KT 20/17 A3015 RMK A01 T01960166  RH  083%=      5-min Rain = 0
KDO1 140912Z 02006KT 20/17 A3015 RMK A01 T01960166  RH  083%=      5-min Rain = 0
KDO1 140913Z 02007KT 20/17 A3015 RMK A01 T01960166  RH  083%=      5-min Rain = 0
KDO1 140914Z 01007KT 20/17 A3015 RMK A01 T01960166  RH  083%=      5-min Rain = 0
KDO1 140915Z 01004KT 20/17 A3015 RMK A01 T01960166  RH  083%=      5-min Rain = 0
KDO1 140916Z 01005KT 20/17 A3015 RMK A01 T01950167  RH  083%=      5-min Rain = 0
KDO1 140917Z 01006KT 20/17 A3015 RMK A01 T01950166  RH  084%=      5-min Rain = 0
KDO1 140918Z 01005KT 20/17 A3015 RMK A01 T01950167  RH  084%=      5-min Rain = 0
KDO1 140919Z 02006KT 20/17 A3015 RMK A01 T01950167  RH  084%=      5-min Rain = 0
KDO1 140920Z 01006KT 19/17 A3015 RMK A01 T01940167  RH  084%=      5-min Rain = 0
KDO1 140921Z 01006KT 19/17 A3015 RMK A01 T01940168  RH  085%=      5-min Rain = 0
KDO1 140922Z 01006KT 19/17 A3015 RMK A01 T01940167  RH  085%=      5-min Rain = 0
KDO1 140923Z 01006KT 19/17 A3015 RMK A01 T01940167  RH  085%=      5-min Rain = 0
KDO1 140924Z 00004KT 19/17 A3015 RMK A01 T01940168  RH  085%=      5-min Rain = 0
KDO1 140925Z 01005KT 19/17 A3015 RMK A01 T01940168  RH  085%=      5-min Rain = 0
KDO1 140926Z 00006KT 19/17 A3015 RMK A01 T01930168  RH  085%=      5-min Rain = 0
KDO1 140927Z 00004KT 19/17 A3015 RMK A01 T01930168  RH  085%=      5-min Rain = 0
KDO1 140928Z 00005KT 19/17 A3015 RMK A01 T01930168  RH  085%=      5-min Rain = 0
KDO1 140929Z 00004KT 19/17 A3015 RMK A01 T01930168  RH  085%=      5-min Rain = 0
KDO1 140930Z 01005KT 19/17 A3015 RMK A01 T01930168  RH  085%=      5-min Rain = 0
KDO1 140931Z 01005KT 19/17 A3015 RMK A01 T01930168  RH  085%=      5-min Rain = 0
KDO1 140932Z 00004KT 19/17 A3015 RMK A01 T01930168  RH  086%=      5-min Rain = 0
KDO1 140933Z 01005KT 19/17 A3016 RMK A01 T01920168  RH  086%=      5-min Rain = 0
KDO1 140934Z 00006KT 19/17 A3016 RMK A01 T01920168  RH  086%=      5-min Rain = 0
KDO1 140935Z 00004KT 19/17 A3016 RMK A01 T01930168  RH  086%=      5-min Rain = 0
KDO1 140936Z 35004KT 19/17 A3016 RMK A01 T01920169  RH  086%=      5-min Rain = 0
KDO1 140937Z 36005KT 19/17 A3016 RMK A01 T01920169  RH  086%=      5-min Rain = 0
KDO1 140938Z 36006KT 19/17 A3016 RMK A01 T01920169  RH  086%=      5-min Rain = 0
KDO1 140939Z 36005KT 19/17 A3016 RMK A01 T01920169  RH  087%=      5-min Rain = 0
KDO1 140940Z 35004KT 19/17 A3016 RMK A01 T01920170  RH  087%=      5-min Rain = 0
KDO1 140941Z 36005KT 19/17 A3016 RMK A01 T01910170  RH  087%=      5-min Rain = 0
KDO1 140942Z 35005KT 19/17 A3016 RMK A01 T01910170  RH  087%=      5-min Rain = 0
KDO1 140943Z 35006KT 19/17 A3016 RMK A01 T01910169  RH  087%=      5-min Rain = 0
KDO1 140944Z 35006KT 19/17 A3016 RMK A01 T01910170  RH  088%=      5-min Rain = 0
KDO1 140945Z 35005KT 19/17 A3016 RMK A01 T01900170  RH  088%=      5-min Rain = 0
KDO1 140946Z 00005KT 19/17 A3016 RMK A01 T01910170  RH  088%=      5-min Rain = 0
KDO1 140947Z 36005KT 19/17 A3016 RMK A01 T01910170  RH  088%=      5-min Rain = 0
KDO1 140948Z 00005KT 19/17 A3016 RMK A01 T01910170  RH  088%=      5-min Rain = 0
KDO1 140949Z 00004KT 19/17 A3016 RMK A01 T01910170  RH  088%=      5-min Rain = 0
KDO1 140950Z 00004KT 19/17 A3016 RMK A01 T01910170  RH  088%=      5-min Rain = 0
KDO1 140951Z 36003KT 19/17 A3015 RMK A01 T01910170  RH  088%=      5-min Rain = 0
KDO1 140952Z 00003KT 19/17 A3015 RMK A01 T01900170  RH  088%=      5-min Rain = 0
KDO1 140953Z 36003KT 19/17 A3015 RMK A01 T01900170  RH  088%=      5-min Rain = 0
KDO1 140954Z 00004KT 19/17 A3015 RMK A01 T01900171  RH  089%=      5-min Rain = 0
KDO1 140955Z 36004KT 19/17 A3015 RMK A01 T01900171  RH  089%=      5-min Rain = 0
KDO1 140956Z 35004KT 19/17 A3015 RMK A01 T01890170  RH  089%=      5-min Rain = 0
KDO1 140957Z 35002KT 19/17 A3015 RMK A01 T01890170  RH  089%=      5-min Rain = 0
KDO1 140958Z 34002KT 19/17 A3015 RMK A01 T01890170  RH  089%=      5-min Rain = 0
KDO1 140959Z 33001KT 19/17 A3015 RMK A01 T01890170  RH  089%=      5-min Rain = 0
KDO1 141000Z 33002KT 19/17 A3015 RMK A01 T01890170  RH  089%=      5-min Rain = 0
KDO1 141001Z 31002KT 19/17 A3015 RMK A01 T01890171  RH  089%=      5-min Rain = 0
KDO1 141002Z 31002KT 19/17 A3015 RMK A01 T01880170  RH  089%=      5-min Rain = 0
KDO1 141003Z 31002KT 19/17 A3015 RMK A01 T01880170  RH  089%=      5-min Rain = 0
KDO1 141004Z 31002KT 19/17 A3016 RMK A01 T01880171  RH  090%=      5-min Rain = 0
KDO1 141005Z 31003KT 19/17 A3016 RMK A01 T01870171  RH  090%=      5-min Rain = 0
KDO1 141006Z 32003KT 19/17 A3016 RMK A01 T01870171  RH  090%=      5-min Rain = 0
KDO1 141007Z 32003KT 19/17 A3016 RMK A01 T01870171  RH  090%=      5-min Rain = 0
KDO1 141008Z 33003KT 19/17 A3016 RMK A01 T01870171  RH  091%=      5-min Rain = 0
KDO1 141009Z 34003KT 19/17 A3016 RMK A01 T01860171  RH  091%=      5-min Rain = 0
KDO1 141010Z 35003KT 19/17 A3016 RMK A01 T01870171  RH  091%=      5-min Rain = 0
KDO1 141011Z 34003KT 19/17 A3016 RMK A01 T01870172  RH  091%=      5-min Rain = 0
KDO1 141012Z 35002KT 19/17 A3016 RMK A01 T01860172  RH  091%=      5-min Rain = 0
KDO1 141013Z 34002KT 19/17 A3016 RMK A01 T01860172  RH  091%=      5-min Rain = 0
KDO1 141014Z 35002KT 19/17 A3016 RMK A01 T01860172  RH  091%=      5-min Rain = 0
KDO1 141015Z 35001KT 19/17 A3016 RMK A01 T01860172  RH  091%=      5-min Rain = 0
KDO1 141016Z 34001KT 19/17 A3016 RMK A01 T01860172  RH  091%=      5-min Rain = 0
KDO1 141017Z 34001KT 19/17 A3016 RMK A01 T01860171  RH  091%=      5-min Rain = 0
KDO1 141018Z 33001KT 19/17 A3016 RMK A01 T01860171  RH  091%=      5-min Rain = 0
KDO1 141019Z 33001KT 19/17 A3016 RMK A01 T01860172  RH  092%=      5-min Rain = 0
KDO1 141020Z 33002KT 19/17 A3016 RMK A01 T01850172  RH  092%=      5-min Rain = 0
KDO1 141021Z 33002KT 19/17 A3016 RMK A01 T01850172  RH  092%=      5-min Rain = 0
KDO1 141022Z 33003KT 19/17 A3016 RMK A01 T01850172  RH  092%=      5-min Rain = 0
KDO1 141023Z 33003KT 19/17 A3016 RMK A01 T01850172  RH  092%=      5-min Rain = 0
KDO1 141024Z 33003KT 19/17 A3016 RMK A01 T01850173  RH  092%=      5-min Rain = 0
KDO1 141025Z 33003KT 19/17 A3017 RMK A01 T01850173  RH  092%=      5-min Rain = 0
KDO1 141026Z 33002KT 19/17 A3017 RMK A01 T01850172  RH  093%=      5-min Rain = 0
KDO1 141027Z 33002KT 19/17 A3017 RMK A01 T01850173  RH  093%=      5-min Rain = 0
KDO1 141028Z 33003KT 19/17 A3017 RMK A01 T01850173  RH  093%=      5-min Rain = 0
KDO1 141029Z 33003KT 19/17 A3017 RMK A01 T01850173  RH  093%=      5-min Rain = 0
KDO1 141030Z 33003KT 19/17 A3017 RMK A01 T01850173  RH  093%=      5-min Rain = 0
KDO1 141031Z 32003KT 19/17 A3017 RMK A01 T01850174  RH  093%=      5-min Rain = 0
KDO1 141032Z 32002KT 19/17 A3017 RMK A01 T01850174  RH  093%=      5-min Rain = 0
KDO1 141033Z 32002KT 19/17 A3017 RMK A01 T01850173  RH  093%=      5-min Rain = 0
KDO1 141034Z 32002KT 19/17 A3018 RMK A01 T01850173  RH  093%=      5-min Rain = 0
KDO1 141035Z 33002KT 19/17 A3018 RMK A01 T01850173  RH  093%=      5-min Rain = 0
KDO1 141036Z 33002KT 19/17 A3018 RMK A01 T01850173  RH  093%=      5-min Rain = 0
KDO1 141037Z 34002KT 19/17 A3018 RMK A01 T01850173  RH  093%=      5-min Rain = 0
KDO1 141038Z 34003KT 19/17 A3018 RMK A01 T01850173  RH  093%=      5-min Rain = 0
KDO1 141039Z 34003KT 19/17 A3018 RMK A01 T01860173  RH  093%=      5-min Rain = 0
KDO1 141040Z 34004KT 19/17 A3018 RMK A01 T01860174  RH  093%=      5-min Rain = 0
KDO1 141041Z 34004KT 19/17 A3018 RMK A01 T01860174  RH  093%=      5-min Rain = 0
KDO1 141042Z 34003KT 19/17 A3018 RMK A01 T01860174  RH  092%=      5-min Rain = 0
KDO1 141043Z 34003KT 19/17 A3018 RMK A01 T01860173  RH  092%=      5-min Rain = 0
KDO1 141044Z 34002KT 19/17 A3018 RMK A01 T01860173  RH  092%=      5-min Rain = 0
KDO1 141045Z 34002KT 19/17 A3018 RMK A01 T01860173  RH  092%=      5-min Rain = 0
KDO1 141046Z 33001KT 19/17 A3018 RMK A01 T01870174  RH  092%=      5-min Rain = 0
KDO1 141047Z 31001KT 19/17 A3018 RMK A01 T01870174  RH  092%=      5-min Rain = 0
KDO1 141048Z 29000KT 19/17 A3018 RMK A01 T01860174  RH  093%=      5-min Rain = 0
KDO1 141049Z 31000KT 19/17 A3018 RMK A01 T01870174  RH  093%=      5-min Rain = 0
KDO1 141050Z 31001KT 19/17 A3018 RMK A01 T01860174  RH  092%=      5-min Rain = 0
KDO1 141051Z 31001KT 19/17 A3018 RMK A01 T01870174  RH  093%=      5-min Rain = 0
KDO1 141052Z 32002KT 19/18 A3018 RMK A01 T01870175  RH  093%=      5-min Rain = 0
KDO1 141053Z 33002KT 19/18 A3018 RMK A01 T01860175  RH  093%=      5-min Rain = 0
KDO1 141054Z 33002KT 19/18 A3018 RMK A01 T01860175  RH  094%=      5-min Rain = 0
KDO1 141055Z 33002KT 19/18 A3018 RMK A01 T01860175  RH  094%=      5-min Rain = 0
KDO1 141056Z 33002KT 19/18 A3017 RMK A01 T01860175  RH  094%=      5-min Rain = 0
KDO1 141057Z 33002KT 19/18 A3017 RMK A01 T01860175  RH  094%=      5-min Rain = 0
KDO1 141058Z 33002KT 19/18 A3017 RMK A01 T01850175  RH  094%=      5-min Rain = 0
KDO1 141059Z 33002KT 19/18 A3017 RMK A01 T01860175  RH  094%=      5-min Rain = 0
KDO1 141100Z 33002KT 19/18 A3017 RMK A01 T01860175  RH  094%=      5-min Rain = 0
KDO1 141101Z 34002KT 19/18 A3017 RMK A01 T01850175  RH  093%=      5-min Rain = 0
KDO1 141102Z 36002KT 19/18 A3017 RMK A01 T01860175  RH  093%=      5-min Rain = 0
KDO1 141103Z 36002KT 19/17 A3017 RMK A01 T01850174  RH  093%=      5-min Rain = 0
KDO1 141104Z 35001KT 19/17 A3017 RMK A01 T01860174  RH  093%=      5-min Rain = 0
KDO1 141105Z 35001KT 19/17 A3017 RMK A01 T01860174  RH  093%=      5-min Rain = 0
KDO1 141106Z 00000KT 19/18 A3017 RMK A01 T01860176  RH  094%=      5-min Rain = 0
KDO1 141107Z 00000KT 19/18 A3017 RMK A01 T01860176  RH  094%=      5-min Rain = 0
KDO1 141108Z 23000KT 19/18 A3017 RMK A01 T01860176  RH  094%=      5-min Rain = 0
KDO1 141109Z 21002KT 19/18 A3016 RMK A01 T01860176  RH  094%=      5-min Rain = 0
KDO1 141110Z 20003KT 19/18 A3016 RMK A01 T01850177  RH  095%=      5-min Rain = 0
KDO1 141111Z 20004KT 19/18 A3016 RMK A01 T01850178  RH  096%=      5-min Rain = 0
KDO1 141112Z 22003KT 18/18 A3016 RMK A01 T01840179  RH  097%=      5-min Rain = 0
KDO1 141113Z 23003KT 18/18 A3016 RMK A01 T01840180  RH  097%=      5-min Rain = 0
KDO1 141114Z 27003KT 18/18 A3017 RMK A01 T01830179  RH  098%=      5-min Rain = 0
KDO1 141115Z 31006KT 18/18 A3017 RMK A01 T01830180  RH  098%=      5-min Rain = 0
KDO1 141116Z 32010KT 18/18 A3018 RMK A01 T01820179  RH  098%=      5-min Rain = 0
KDO1 141117Z 32011KT 18/18 A3018 RMK A01 T01830178  RH  097%=      5-min Rain = 0
KDO1 141118Z 32009KT 18/18 A3018 RMK A01 T01820178  RH  097%=      5-min Rain = 0
KDO1 141119Z 32009KT 18/18 A3018 RMK A01 T01830177  RH  096%=      5-min Rain = 0
KDO1 141120Z 33008KT 18/18 A3018 RMK A01 T01830175  RH  096%=      5-min Rain = 0
KDO1 141121Z 33003KT 18/18 A3018 RMK A01 T01830175  RH  095%=      5-min Rain = 0
KDO1 141122Z 34001KT 18/18 A3017 RMK A01 T01830175  RH  095%=      5-min Rain = 0
KDO1 141123Z 27001KT 18/17 A3017 RMK A01 T01830174  RH  094%=      5-min Rain = 0
KDO1 141124Z 27002KT 18/17 A3017 RMK A01 T01840174  RH  094%=      5-min Rain = 0
KDO1 141125Z 30004KT 18/17 A3017 RMK A01 T01840174  RH  093%=      5-min Rain = 0
KDO1 141126Z 31006KT 19/17 A3018 RMK A01 T01850174  RH  093%=      5-min Rain = 0
KDO1 141127Z 31008KT 19/18 A3018 RMK A01 T01850175  RH  094%=      5-min Rain = 0
KDO1 141128Z 32009KT 19/18 A3018 RMK A01 T01850175  RH  093%=      5-min Rain = 0
KDO1 141129Z 31009KT 19/17 A3018 RMK A01 T01860174  RH  093%=      5-min Rain = 0
KDO1 141130Z 31006KT 19/17 A3018 RMK A01 T01860173  RH  092%=      5-min Rain = 0
KDO1 141131Z 30005KT 19/17 A3017 RMK A01 T01870173  RH  092%=      5-min Rain = 0
KDO1 141132Z 29004KT 19/17 A3017 RMK A01 T01870172  RH  091%=      5-min Rain = 0
KDO1 141133Z 30005KT 19/17 A3018 RMK A01 T01880173  RH  091%=      5-min Rain = 0
KDO1 141134Z 30006KT 19/17 A3018 RMK A01 T01880173  RH  090%=      5-min Rain = 0
KDO1 141135Z 30008KT 19/17 A3018 RMK A01 T01890173  RH  091%=      5-min Rain = 0
KDO1 141136Z 32009KT 19/17 A3019 RMK A01 T01890173  RH  090%=      5-min Rain = 0
KDO1 141137Z 32010KT 19/17 A3019 RMK A01 T01890173  RH  090%=      5-min Rain = 0
KDO1 141138Z 32009KT 19/17 A3019 RMK A01 T01890173  RH  090%=      5-min Rain = 0
KDO1 141139Z 33009KT 19/17 A3019 RMK A01 T01890173  RH  090%=      5-min Rain = 0
KDO1 141140Z 33008KT 19/17 A3019 RMK A01 T01890173  RH  090%=      5-min Rain = 0
KDO1 141141Z 33006KT 19/17 A3018 RMK A01 T01890173  RH  090%=      5-min Rain = 0
KDO1 141142Z 32008KT 19/17 A3018 RMK A01 T01890173  RH  090%=      5-min Rain = 0
KDO1 141143Z 33007KT 19/17 A3018 RMK A01 T01890172  RH  090%=      5-min Rain = 0
KDO1 141144Z 32007KT 19/17 A3019 RMK A01 T01890172  RH  090%=      5-min Rain = 0
KDO1 141145Z 32008KT 19/17 A3019 RMK A01 T01890172  RH  090%=      5-min Rain = 0
KDO1 141146Z 32010KT 19/17 A3019 RMK A01 T01890172  RH  090%=      5-min Rain = 0
KDO1 141147Z 32009KT 19/17 A3019 RMK A01 T01890172  RH  090%=      5-min Rain = 0
KDO1 141148Z 32008KT 19/17 A3019 RMK A01 T01890172  RH  089%=      5-min Rain = 0
KDO1 141149Z 33008KT 19/17 A3019 RMK A01 T01890171  RH  089%=      5-min Rain = 0
KDO1 141150Z 32006KT 19/17 A3018 RMK A01 T01890171  RH  089%=      5-min Rain = 0
KDO1 141151Z 33005KT 19/17 A3018 RMK A01 T01890171  RH  089%=      5-min Rain = 0
KDO1 141152Z 32006KT 19/17 A3018 RMK A01 T01890171  RH  089%=      5-min Rain = 0
KDO1 141153Z 32007KT 19/17 A3018 RMK A01 T01900171  RH  089%=      5-min Rain = 0
KDO1 141154Z 32008KT 19/17 A3018 RMK A01 T01900171  RH  089%=      5-min Rain = 0
KDO1 141155Z 32010KT 19/17 A3018 RMK A01 T01900170  RH  088%=      5-min Rain = 0
KDO1 141156Z 31009KT 19/17 A3018 RMK A01 T01900170  RH  088%=      5-min Rain = 0
KDO1 141157Z 32008KT 19/17 A3018 RMK A01 T01910170  RH  088%=      5-min Rain = 0
KDO1 141158Z 31006KT 19/17 A3018 RMK A01 T01910170  RH  087%=      5-min Rain = 0
KDO1 141159Z 31006KT 19/17 A3018 RMK A01 T01910170  RH  087%=      5-min Rain = 0
KDO1 141200Z 32006KT 19/17 A3018 RMK A01 T01910169  RH  087%=      5-min Rain = 0
KDO1 141201Z 32007KT 19/17 A3018 RMK A01 T01910168  RH  087%=      5-min Rain = 0
KDO1 141202Z 33007KT 19/17 A3018 RMK A01 T01920169  RH  086%=      5-min Rain = 0
KDO1 141203Z 32010KT 19/17 A3018 RMK A01 T01920168  RH  086%=      5-min Rain = 0
KDO1 141204Z 32009KT 19/17 A3018 RMK A01 T01920168  RH  086%=      5-min Rain = 0
KDO1 141205Z 32009KT 19/17 A3019 RMK A01 T01920168  RH  086%=      5-min Rain = 0
KDO1 141206Z 32009KT 19/17 A3019 RMK A01 T01920168  RH  086%=      5-min Rain = 0
KDO1 141207Z 32009KT 19/17 A3019 RMK A01 T01920168  RH  086%=      5-min Rain = 0
KDO1 141208Z 33008KT 19/17 A3019 RMK A01 T01910168  RH  086%=      5-min Rain = 0
KDO1 141209Z 32007KT 19/17 A3019 RMK A01 T01910167  RH  086%=      5-min Rain = 0
KDO1 141210Z 33007KT 19/17 A3019 RMK A01 T01910168  RH  086%=      5-min Rain = 0
KDO1 141211Z 32007KT 19/17 A3019 RMK A01 T01910167  RH  086%=      5-min Rain = 0
KDO1 141212Z 33007KT 19/17 A3019 RMK A01 T01910167  RH  086%=      5-min Rain = 0
KDO1 141213Z 34005KT 19/17 A3019 RMK A01 T01910168  RH  086%=      5-min Rain = 0
KDO1 141214Z 34005KT 19/17 A3019 RMK A01 T01910168  RH  086%=      5-min Rain = 0
KDO1 141215Z 35005KT 19/17 A3019 RMK A01 T01910168  RH  086%=      5-min Rain = 0
KDO1 141216Z 35005KT 19/17 A3019 RMK A01 T01910168  RH  086%=      5-min Rain = 0
KDO1 141217Z 36006KT 19/17 A3019 RMK A01 T01910168  RH  086%=      5-min Rain = 0
KDO1 141218Z 35005KT 19/17 A3019 RMK A01 T01910167  RH  086%=      5-min Rain = 0
KDO1 141219Z 36005KT 19/17 A302 RMK A01 T01910167  RH  086%=      5-min Rain = 0
KDO1 141220Z 00005KT 19/17 A302 RMK A01 T01910168  RH  086%=      5-min Rain = 0
KDO1 141221Z 01004KT 19/17 A302 RMK A01 T01910168  RH  086%=      5-min Rain = 0
KDO1 141222Z 01004KT 19/17 A302 RMK A01 T01910169  RH  087%=      5-min Rain = 0
KDO1 141223Z 01003KT 19/17 A3019 RMK A01 T01900168  RH  087%=      5-min Rain = 0
KDO1 141224Z 01003KT 19/17 A3019 RMK A01 T01900168  RH  087%=      5-min Rain = 0
KDO1 141225Z 01002KT 19/17 A3019 RMK A01 T01900168  RH  087%=      5-min Rain = 0
KDO1 141226Z 35002KT 19/17 A3019 RMK A01 T01900169  RH  088%=      5-min Rain = 0
KDO1 141227Z 35004KT 19/17 A302 RMK A01 T01900169  RH  088%=      5-min Rain = 0
KDO1 141228Z 35004KT 19/17 A302 RMK A01 T01890168  RH  088%=      5-min Rain = 0
KDO1 141229Z 35004KT 19/17 A302 RMK A01 T01890168  RH  088%=      5-min Rain = 0
KDO1 141230Z 36004KT 19/17 A302 RMK A01 T01890168  RH  088%=      5-min Rain = 0
KDO1 141231Z 00004KT 19/17 A302 RMK A01 T01890168  RH  088%=      5-min Rain = 0
KDO1 141232Z 01004KT 19/17 A302 RMK A01 T01890169  RH  088%=      5-min Rain = 0
KDO1 141233Z 35004KT 19/17 A302 RMK A01 T01880168  RH  088%=      5-min Rain = 0
KDO1 141234Z 35004KT 19/17 A302 RMK A01 T01880168  RH  088%=      5-min Rain = 0
KDO1 141235Z 35004KT 19/17 A302 RMK A01 T01880168  RH  088%=      5-min Rain = 0
KDO1 141236Z 34004KT 19/17 A302 RMK A01 T01880168  RH  088%=      5-min Rain = 0
KDO1 141237Z 34004KT 19/17 A302 RMK A01 T01880169  RH  089%=      5-min Rain = 0
KDO1 141238Z 34004KT 19/17 A3019 RMK A01 T01870169  RH  089%=      5-min Rain = 0
KDO1 141239Z 34003KT 19/17 A3019 RMK A01 T01870170  RH  089%=      5-min Rain = 0
KDO1 141240Z 33003KT 19/17 A3019 RMK A01 T01870169  RH  089%=      5-min Rain = 0
KDO1 141241Z 33004KT 19/17 A3019 RMK A01 T01870169  RH  089%=      5-min Rain = 0
KDO1 141242Z 33003KT 19/17 A3019 RMK A01 T01870169  RH  089%=      5-min Rain = 0
KDO1 141243Z 34003KT 19/17 A3019 RMK A01 T01870169  RH  089%=      5-min Rain = 0
KDO1 141244Z 33003KT 19/17 A3019 RMK A01 T01870169  RH  089%=      5-min Rain = 0
KDO1 141245Z 34004KT 19/17 A3019 RMK A01 T01870169  RH  089%=      5-min Rain = 0
KDO1 141246Z 35003KT 19/17 A302 RMK A01 T01870170  RH  090%=      5-min Rain = 0
KDO1 141247Z 35004KT 19/17 A302 RMK A01 T01880171  RH  090%=      5-min Rain = 0
KDO1 141248Z 35004KT 19/17 A302 RMK A01 T01880170  RH  089%=      5-min Rain = 0
KDO1 141249Z 34004KT 19/17 A302 RMK A01 T01880170  RH  089%=      5-min Rain = 0
KDO1 141250Z 35004KT 19/17 A302 RMK A01 T01890170  RH  089%=      5-min Rain = 0
KDO1 141251Z 34004KT 19/17 A302 RMK A01 T01890170  RH  088%=      5-min Rain = 0
KDO1 141252Z 33005KT 19/17 A3019 RMK A01 T01890169  RH  088%=      5-min Rain = 0
KDO1 141253Z 33004KT 19/17 A3019 RMK A01 T01900169  RH  088%=      5-min Rain = 0
KDO1 141254Z 32004KT 19/17 A302 RMK A01 T01910170  RH  088%=      5-min Rain = 0
KDO1 141255Z 32004KT 19/17 A302 RMK A01 T01910170  RH  088%=      5-min Rain = 0
KDO1 141256Z 33003KT 19/17 A302 RMK A01 T01920170  RH  087%=      5-min Rain = 0
KDO1 141257Z 34004KT 19/17 A302 RMK A01 T01930171  RH  087%=      5-min Rain = 0
KDO1 141258Z 32004KT 19/17 A302 RMK A01 T01930169  RH  086%=      5-min Rain = 0
KDO1 141259Z 32003KT 19/17 A302 RMK A01 T01940169  RH  085%=      5-min Rain = 0
KDO1 141300Z 31003KT 20/17 A302 RMK A01 T01960169  RH  085%=      5-min Rain = 0
KDO1 141301Z 30003KT 20/17 A302 RMK A01 T01970167  RH  083%=      5-min Rain = 0
KDO1 141302Z 30003KT 20/17 A302 RMK A01 T01980167  RH  083%=      5-min Rain = 0
KDO1 141303Z 30003KT 20/17 A302 RMK A01 T01990168  RH  082%=      5-min Rain = 0
KDO1 141304Z 31002KT 20/17 A302 RMK A01 T01990168  RH  082%=      5-min Rain = 0
KDO1 141305Z 31003KT 20/17 A302 RMK A01 T02000169  RH  082%=      5-min Rain = 0
KDO1 141306Z 31004KT 20/17 A302 RMK A01 T02000168  RH  082%=      5-min Rain = 0
KDO1 141307Z 32004KT 20/17 A302 RMK A01 T02000167  RH  081%=      5-min Rain = 0
KDO1 141308Z 32003KT 20/17 A302 RMK A01 T02000168  RH  081%=      5-min Rain = 0
KDO1 141309Z 32003KT 20/17 A302 RMK A01 T02000168  RH  082%=      5-min Rain = 0
KDO1 141310Z 31003KT 20/17 A302 RMK A01 T02000169  RH  082%=      5-min Rain = 0
KDO1 141311Z 33004KT 20/17 A302 RMK A01 T02010169  RH  082%=      5-min Rain = 0
KDO1 141312Z 33004KT 20/17 A302 RMK A01 T02010169  RH  082%=      5-min Rain = 0
KDO1 141313Z 34004KT 20/17 A302 RMK A01 T02010169  RH  082%=      5-min Rain = 0
KDO1 141314Z 35004KT 20/17 A302 RMK A01 T02020170  RH  082%=      5-min Rain = 0
KDO1 141315Z 00003KT 20/17 A3021 RMK A01 T02020169  RH  082%=      5-min Rain = 0
KDO1 141316Z 36003KT 20/17 A3021 RMK A01 T02020171  RH  082%=      5-min Rain = 0
KDO1 141317Z 35002KT 20/17 A3021 RMK A01 T02030170  RH  082%=      5-min Rain = 0
KDO1 141318Z 35003KT 20/17 A3021 RMK A01 T02030170  RH  081%=      5-min Rain = 0
KDO1 141319Z 36004KT 20/17 A3021 RMK A01 T02040170  RH  081%=      5-min Rain = 0
KDO1 141320Z 35004KT 20/17 A3021 RMK A01 T02040169  RH  080%=      5-min Rain = 0
KDO1 141321Z 01003KT 20/17 A3021 RMK A01 T02040168  RH  080%=      5-min Rain = 0
KDO1 141322Z 01003KT 20/17 A3021 RMK A01 T02040170  RH  080%=      5-min Rain = 0
KDO1 141323Z 01004KT 21/17 A3021 RMK A01 T02050169  RH  080%=      5-min Rain = 0
KDO1 141324Z 01004KT 21/17 A3021 RMK A01 T02050169  RH  080%=      5-min Rain = 0
KDO1 141325Z 01003KT 21/17 A3021 RMK A01 T02050169  RH  080%=      5-min Rain = 0
KDO1 141326Z 00002KT 21/17 A3021 RMK A01 T02060171  RH  080%=      5-min Rain = 0
KDO1 141327Z 35003KT 21/17 A3021 RMK A01 T02060170  RH  080%=      5-min Rain = 0
KDO1 141328Z 34003KT 21/17 A3021 RMK A01 T02060170  RH  080%=      5-min Rain = 0
KDO1 141329Z 34004KT 21/17 A3021 RMK A01 T02060169  RH  079%=      5-min Rain = 0
KDO1 141330Z 34002KT 21/17 A3021 RMK A01 T02060168  RH  079%=      5-min Rain = 0
KDO1 141331Z 31002KT 21/17 A3021 RMK A01 T02070169  RH  079%=      5-min Rain = 0
KDO1 141332Z 33003KT 21/17 A3021 RMK A01 T02070168  RH  078%=      5-min Rain = 0
KDO1 141333Z 32002KT 21/17 A302 RMK A01 T02070169  RH  079%=      5-min Rain = 0
KDO1 141334Z 31002KT 21/17 A302 RMK A01 T02070169  RH  079%=      5-min Rain = 0
KDO1 141335Z 31003KT 21/17 A302 RMK A01 T02080170  RH  079%=      5-min Rain = 0
KDO1 141336Z 30003KT 21/17 A302 RMK A01 T02090168  RH  078%=      5-min Rain = 0
KDO1 141337Z 28003KT 21/17 A302 RMK A01 T02090169  RH  078%=      5-min Rain = 0
KDO1 141338Z 28005KT 21/17 A302 RMK A01 T02090169  RH  078%=      5-min Rain = 0
KDO1 141339Z 27005KT 21/17 A302 RMK A01 T02100169  RH  078%=      5-min Rain = 0
KDO1 141340Z 27006KT 21/17 A302 RMK A01 T02100169  RH  077%=      5-min Rain = 0
KDO1 141341Z 27006KT 21/17 A302 RMK A01 T02100170  RH  078%=      5-min Rain = 0
KDO1 141342Z 27006KT 21/17 A302 RMK A01 T02110170  RH  077%=      5-min Rain = 0
KDO1 141343Z 28005KT 21/17 A302 RMK A01 T02110170  RH  078%=      5-min Rain = 0
KDO1 141344Z 29007KT 21/17 A302 RMK A01 T02120171  RH  077%=      5-min Rain = 0
KDO1 141345Z 29005KT 21/17 A3021 RMK A01 T02120169  RH  077%=      5-min Rain = 0
KDO1 141346Z 29004KT 21/17 A3021 RMK A01 T02120170  RH  077%=      5-min Rain = 0
KDO1 141347Z 31005KT 21/17 A3021 RMK A01 T02120169  RH  076%=      5-min Rain = 0
KDO1 141348Z 30004KT 21/17 A3021 RMK A01 T02130170  RH  076%=      5-min Rain = 0
KDO1 141349Z 30004KT 21/17 A3021 RMK A01 T02140170  RH  076%=      5-min Rain = 0
KDO1 141350Z 30005KT 21/17 A3021 RMK A01 T02140170  RH  076%=      5-min Rain = 0
KDO1 141351Z 30005KT 22/17 A3021 RMK A01 T02150169  RH  075%=      5-min Rain = 0
KDO1 141352Z 30006KT 22/17 A3021 RMK A01 T02150168  RH  075%=      5-min Rain = 0
KDO1 141353Z 30005KT 22/17 A3021 RMK A01 T02150168  RH  075%=      5-min Rain = 0
KDO1 141354Z 29005KT 22/17 A3021 RMK A01 T02150170  RH  076%=      5-min Rain = 0
KDO1 141355Z 29005KT 22/17 A3021 RMK A01 T02150171  RH  076%=      5-min Rain = 0
KDO1 141356Z 29006KT 22/17 A3021 RMK A01 T02160171  RH  075%=      5-min Rain = 0
KDO1 141357Z 30005KT 22/17 A3021 RMK A01 T02160171  RH  075%=      5-min Rain = 0
KDO1 141358Z 30004KT 22/17 A3021 RMK A01 T02160172  RH  076%=      5-min Rain = 0
KDO1 141359Z 29003KT 22/18 A3021 RMK A01 T02180175  RH  076%=      5-min Rain = 0
KDO1 141400Z 29004KT 22/17 A3021 RMK A01 T02190173  RH  075%=      5-min Rain = 0
KDO1 141401Z 29005KT 22/17 A3021 RMK A01 T02190173  RH  075%=      5-min Rain = 0
KDO1 141402Z 31004KT 22/17 A3021 RMK A01 T02200173  RH  075%=      5-min Rain = 0
KDO1 141403Z 31004KT 22/17 A3021 RMK A01 T02200174  RH  075%=      5-min Rain = 0
KDO1 141404Z 33003KT 22/18 A3021 RMK A01 T02220175  RH  075%=      5-min Rain = 0
KDO1 141405Z 32004KT 22/17 A3021 RMK A01 T02230174  RH  074%=      5-min Rain = 0
KDO1 141406Z 31003KT 22/17 A3021 RMK A01 T02240174  RH  073%=      5-min Rain = 0
KDO1 141407Z 34003KT 22/17 A3021 RMK A01 T02240174  RH  073%=      5-min Rain = 0
KDO1 141408Z 32003KT 23/17 A3021 RMK A01 T02250174  RH  073%=      5-min Rain = 0
KDO1 141409Z 32003KT 23/17 A3021 RMK A01 T02270174  RH  072%=      5-min Rain = 0
KDO1 141410Z 31004KT 23/17 A3021 RMK A01 T02290174  RH  071%=      5-min Rain = 0
KDO1 141411Z 31003KT 23/17 A3021 RMK A01 T02300173  RH  070%=      5-min Rain = 0
KDO1 141412Z 33002KT 23/17 A3021 RMK A01 T02310174  RH  070%=      5-min Rain = 0
KDO1 141413Z 32002KT 23/18 A3021 RMK A01 T02310175  RH  070%=      5-min Rain = 0
KDO1 141414Z 31002KT 23/18 A3021 RMK A01 T02330177  RH  071%=      5-min Rain = 0
KDO1 141415Z 31002KT 24/18 A3021 RMK A01 T02350177  RH  070%=      5-min Rain = 0
KDO1 141416Z 32002KT 24/18 A3021 RMK A01 T02370175  RH  068%=      5-min Rain = 0
KDO1 141417Z 31003KT 24/18 A3021 RMK A01 T02370175  RH  068%=      5-min Rain = 0
KDO1 141418Z 34003KT 24/18 A3021 RMK A01 T02370175  RH  068%=      5-min Rain = 0
KDO1 141419Z 35002KT 24/18 A3021 RMK A01 T02380175  RH  068%=      5-min Rain = 0
KDO1 141420Z 32003KT 24/18 A3021 RMK A01 T02390176  RH  068%=      5-min Rain = 0
KDO1 141421Z 32003KT 24/18 A3021 RMK A01 T02400176  RH  067%=      5-min Rain = 0
KDO1 141422Z 32003KT 24/18 A3021 RMK A01 T02420176  RH  067%=      5-min Rain = 0
KDO1 141423Z 32003KT 24/18 A3021 RMK A01 T02420175  RH  066%=      5-min Rain = 0
KDO1 141424Z 31002KT 24/18 A3021 RMK A01 T02420176  RH  066%=      5-min Rain = 0
KDO1 141425Z 29001KT 24/18 A3021 RMK A01 T02430177  RH  067%=      5-min Rain = 0
KDO1 141426Z 30002KT 24/18 A3021 RMK A01 T02430177  RH  066%=      5-min Rain = 0
KDO1 141427Z 30002KT 24/18 A3021 RMK A01 T02430176  RH  066%=      5-min Rain = 0
KDO1 141428Z 35001KT 24/18 A3021 RMK A01 T02430177  RH  066%=      5-min Rain = 0
KDO1 141429Z 35002KT 24/18 A3021 RMK A01 T02440175  RH  065%=      5-min Rain = 0
KDO1 141430Z 35002KT 24/18 A3021 RMK A01 T02440176  RH  066%=      5-min Rain = 0
KDO1 141431Z 33002KT 25/18 A3021 RMK A01 T02450175  RH  065%=      5-min Rain = 0
KDO1 141432Z 33002KT 25/18 A3021 RMK A01 T02450175  RH  065%=      5-min Rain = 0
KDO1 141433Z 30001KT 24/18 A3021 RMK A01 T02440176  RH  066%=      5-min Rain = 0
KDO1 141434Z 27001KT 24/18 A3021 RMK A01 T02440176  RH  066%=      5-min Rain = 0
KDO1 141435Z 28002KT 24/18 A3021 RMK A01 T02440175  RH  065%=      5-min Rain = 0
KDO1 141436Z 28002KT 25/18 A3021 RMK A01 T02450175  RH  065%=      5-min Rain = 0
KDO1 141437Z 28002KT 25/18 A3021 RMK A01 T02450175  RH  065%=      5-min Rain = 0
KDO1 141438Z 30002KT 25/18 A3021 RMK A01 T02460177  RH  066%=      5-min Rain = 0
KDO1 141439Z 30002KT 25/18 A3021 RMK A01 T02470178  RH  065%=      5-min Rain = 0
KDO1 141440Z 28003KT 25/18 A3021 RMK A01 T02480176  RH  064%=      5-min Rain = 0
KDO1 141441Z 30003KT 25/18 A3021 RMK A01 T02480176  RH  064%=      5-min Rain = 0
KDO1 141442Z 28003KT 25/18 A3021 RMK A01 T02480177  RH  065%=      5-min Rain = 0
KDO1 141443Z 27003KT 25/18 A3021 RMK A01 T02480177  RH  065%=      5-min Rain = 0
KDO1 141444Z 27004KT 25/18 A3021 RMK A01 T02480177  RH  065%=      5-min Rain = 0
KDO1 141445Z 29003KT 25/18 A3021 RMK A01 T02480178  RH  065%=      5-min Rain = 0
KDO1 141446Z 30003KT 25/18 A3021 RMK A01 T02490179  RH  065%=      5-min Rain = 0
KDO1 141447Z 31003KT 25/18 A3021 RMK A01 T02490177  RH  064%=      5-min Rain = 0
KDO1 141448Z 27003KT 25/18 A3021 RMK A01 T02490176  RH  064%=      5-min Rain = 0
KDO1 141449Z 25004KT 25/18 A3021 RMK A01 T02500179  RH  065%=      5-min Rain = 0
KDO1 141450Z 26003KT 25/18 A3021 RMK A01 T02500178  RH  064%=      5-min Rain = 0
KDO1 141451Z 26004KT 25/18 A3021 RMK A01 T02500178  RH  065%=      5-min Rain = 0
KDO1 141452Z 25003KT 25/18 A3021 RMK A01 T02500178  RH  064%=      5-min Rain = 0
KDO1 141453Z 26003KT 25/18 A3021 RMK A01 T02490177  RH  064%=      5-min Rain = 0
KDO1 141454Z 27002KT 25/18 A3021 RMK A01 T02490177  RH  064%=      5-min Rain = 0
KDO1 141455Z 24002KT 25/18 A3021 RMK A01 T02490177  RH  064%=      5-min Rain = 0
KDO1 141456Z 24002KT 25/18 A3021 RMK A01 T02480177  RH  065%=      5-min Rain = 0
KDO1 141457Z 24001KT 25/18 A3021 RMK A01 T02490177  RH  064%=      5-min Rain = 0
KDO1 141458Z 24001KT 25/18 A3021 RMK A01 T02490176  RH  064%=      5-min Rain = 0
KDO1 141459Z 28002KT 25/18 A3021 RMK A01 T02490179  RH  065%=      5-min Rain = 0
KDO1 141500Z 27002KT 25/18 A3021 RMK A01 T02500179  RH  065%=      5-min Rain = 0
KDO1 141501Z 32001KT 25/18 A3021 RMK A01 T02510178  RH  064%=      5-min Rain = 0
KDO1 141502Z 00000KT 25/18 A302 RMK A01 T02510176  RH  063%=      5-min Rain = 0
KDO1 141503Z 00000KT 25/18 A302 RMK A01 T02510176  RH  063%=      5-min Rain = 0
KDO1 141504Z 10000KT 25/18 A302 RMK A01 T02510176  RH  063%=      5-min Rain = 0
KDO1 141505Z 15001KT 25/18 A302 RMK A01 T02510178  RH  064%=      5-min Rain = 0
KDO1 141506Z 11000KT 25/18 A302 RMK A01 T02510179  RH  064%=      5-min Rain = 0
KDO1 141507Z 02001KT 25/18 A302 RMK A01 T02520178  RH  063%=      5-min Rain = 0
KDO1 141508Z 01003KT 25/18 A302 RMK A01 T02520177  RH  063%=      5-min Rain = 0
KDO1 141509Z 01003KT 25/18 A302 RMK A01 T02530177  RH  063%=      5-min Rain = 0
KDO1 141510Z 03003KT 25/18 A302 RMK A01 T02530177  RH  063%=      5-min Rain = 0
KDO1 141511Z 06001KT 25/18 A3019 RMK A01 T02530176  RH  063%=      5-min Rain = 0
KDO1 141512Z 11001KT 25/18 A3019 RMK A01 T02530177  RH  063%=      5-min Rain = 0
KDO1 141513Z 00000KT 25/18 A3019 RMK A01 T02540177  RH  062%=      5-min Rain = 0
KDO1 141514Z 12001KT 26/18 A3019 RMK A01 T02550177  RH  062%=      5-min Rain = 0
KDO1 141515Z 14001KT 26/18 A3019 RMK A01 T02560178  RH  062%=      5-min Rain = 0
KDO1 141516Z 14001KT 26/18 A3019 RMK A01 T02580178  RH  061%=      5-min Rain = 0
KDO1 141517Z 18001KT 26/18 A3019 RMK A01 T02580177  RH  061%=      5-min Rain = 0
KDO1 141518Z 17001KT 26/18 A3019 RMK A01 T02580179  RH  062%=      5-min Rain = 0
KDO1 141519Z 00000KT 26/18 A3019 RMK A01 T02580178  RH  061%=      5-min Rain = 0
KDO1 141520Z 31000KT 26/18 A3019 RMK A01 T02590178  RH  061%=      5-min Rain = 0
KDO1 141521Z 00000KT 26/18 A3019 RMK A01 T02590177  RH  061%=      5-min Rain = 0
KDO1 141522Z 28001KT 26/18 A3019 RMK A01 T02590178  RH  061%=      5-min Rain = 0
KDO1 141523Z 25001KT 26/18 A3019 RMK A01 T02590178  RH  061%=      5-min Rain = 0
KDO1 141524Z 29002KT 26/18 A3019 RMK A01 T02590178  RH  061%=      5-min Rain = 0
KDO1 141525Z 30002KT 26/18 A3019 RMK A01 T02590179  RH  061%=      5-min Rain = 0
KDO1 141526Z 30001KT 26/18 A302 RMK A01 T02600178  RH  061%=      5-min Rain = 0
KDO1 141527Z 32001KT 26/18 A302 RMK A01 T02600179  RH  061%=      5-min Rain = 0
KDO1 141528Z 28001KT 26/18 A302 RMK A01 T02610179  RH  061%=      5-min Rain = 0
KDO1 141529Z 30002KT 26/18 A302 RMK A01 T02620179  RH  060%=      5-min Rain = 0
KDO1 141530Z 30001KT 26/18 A302 RMK A01 T02630180  RH  060%=      5-min Rain = 0
KDO1 141531Z 28000KT 26/18 A302 RMK A01 T02640180  RH  060%=      5-min Rain = 0
KDO1 141532Z 25000KT 26/18 A302 RMK A01 T02640180  RH  060%=      5-min Rain = 0
KDO1 141533Z 27000KT 27/18 A302 RMK A01 T02650180  RH  060%=      5-min Rain = 0
KDO1 141534Z 22001KT 27/18 A302 RMK A01 T02660181  RH  059%=      5-min Rain = 0
KDO1 141535Z 22002KT 27/18 A302 RMK A01 T02690182  RH  059%=      5-min Rain = 0
KDO1 141536Z 23001KT 27/18 A302 RMK A01 T02700181  RH  058%=      5-min Rain = 0
KDO1 141537Z 25002KT 27/18 A302 RMK A01 T02700183  RH  059%=      5-min Rain = 0
KDO1 141538Z 25001KT 27/18 A302 RMK A01 T02720182  RH  058%=      5-min Rain = 0
KDO1 141539Z 14001KT 27/18 A302 RMK A01 T02720184  RH  058%=      5-min Rain = 0
KDO1 141540Z 13004KT 28/19 A3019 RMK A01 T02750189  RH  059%=      5-min Rain = 0
KDO1 141541Z 13004KT 28/19 A3019 RMK A01 T02780189  RH  058%=      5-min Rain = 0
KDO1 141542Z 12001KT 28/19 A3019 RMK A01 T02790189  RH  058%=      5-min Rain = 0
KDO1 141543Z 32001KT 28/19 A3019 RMK A01 T02790191  RH  059%=      5-min Rain = 0
KDO1 141544Z 28001KT 28/19 A3019 RMK A01 T02770192  RH  060%=      5-min Rain = 0
KDO1 141545Z 21000KT 28/19 A3019 RMK A01 T02780193  RH  060%=      5-min Rain = 0
KDO1 141546Z 00000KT 28/19 A3019 RMK A01 T02790192  RH  059%=      5-min Rain = 0
KDO1 141547Z 07002KT 28/19 A3019 RMK A01 T02810191  RH  058%=      5-min Rain = 0
KDO1 141548Z 06005KT 28/19 A3019 RMK A01 T02830191  RH  057%=      5-min Rain = 0
KDO1 141549Z 07002KT 28/19 A3019 RMK A01 T02840191  RH  057%=      5-min Rain = 0
KDO1 141550Z 05002KT 28/19 A3019 RMK A01 T02840190  RH  056%=      5-min Rain = 0
KDO1 141551Z 06004KT 28/19 A3019 RMK A01 T02830189  RH  056%=      5-min Rain = 0
KDO1 141552Z 08003KT 28/19 A3019 RMK A01 T02830188  RH  056%=      5-min Rain = 0
KDO1 141553Z 13002KT 28/19 A3019 RMK A01 T02810188  RH  057%=      5-min Rain = 0
KDO1 141554Z 15002KT 28/19 A302 RMK A01 T02820189  RH  057%=      5-min Rain = 0
KDO1 141555Z 14001KT 28/19 A302 RMK A01 T02840189  RH  056%=      5-min Rain = 0
KDO1 141556Z 32002KT 28/19 A302 RMK A01 T02840189  RH  056%=      5-min Rain = 0
KDO1 141557Z 35002KT 29/19 A302 RMK A01 T02860190  RH  056%=      5-min Rain = 0
KDO1 141558Z 33003KT 29/19 A302 RMK A01 T02860190  RH  056%=      5-min Rain = 0
KDO1 141559Z 34005KT 29/19 A302 RMK A01 T02870190  RH  056%=      5-min Rain = 0
KDO1 141600Z 33004KT 29/19 A302 RMK A01 T02850190  RH  056%=      5-min Rain = 0
KDO1 141601Z 32003KT 28/19 A302 RMK A01 T02830188  RH  056%=      5-min Rain = 0
KDO1 141602Z 29003KT 28/19 A302 RMK A01 T02810188  RH  057%=      5-min Rain = 0
KDO1 141603Z 29003KT 28/19 A302 RMK A01 T02800188  RH  057%=      5-min Rain = 0
KDO1 141604Z 27003KT 28/19 A302 RMK A01 T02800190  RH  058%=      5-min Rain = 0
KDO1 141605Z 26003KT 28/19 A302 RMK A01 T02840193  RH  057%=      5-min Rain = 0
KDO1 141606Z 34003KT 29/19 A302 RMK A01 T02890192  RH  056%=      5-min Rain = 0
KDO1 141607Z 34003KT 29/19 A302 RMK A01 T02880190  RH  055%=      5-min Rain = 0
KDO1 141608Z 36003KT 29/19 A302 RMK A01 T02870191  RH  056%=      5-min Rain = 0
KDO1 141609Z 36002KT 29/19 A302 RMK A01 T02880189  RH  055%=      5-min Rain = 0
KDO1 141610Z 06001KT 29/19 A302 RMK A01 T02880189  RH  055%=      5-min Rain = 0
KDO1 141611Z 33003KT 29/19 A302 RMK A01 T02890190  RH  055%=      5-min Rain = 0
KDO1 141612Z 31003KT 29/19 A302 RMK A01 T02900189  RH  054%=      5-min Rain = 0
KDO1 141613Z 35001KT 29/19 A302 RMK A01 T02900188  RH  054%=      5-min Rain = 0
KDO1 141614Z 05000KT 29/19 A302 RMK A01 T02900189  RH  054%=      5-min Rain = 0
KDO1 141615Z 33002KT 29/19 A302 RMK A01 T02890189  RH  055%=      5-min Rain = 0
KDO1 141616Z 34004KT 29/19 A302 RMK A01 T02880190  RH  055%=      5-min Rain = 0
KDO1 141617Z 32004KT 29/19 A302 RMK A01 T02860191  RH  056%=      5-min Rain = 0
KDO1 141618Z 31002KT 29/19 A302 RMK A01 T02850190  RH  056%=      5-min Rain = 0
KDO1 141619Z 28002KT 29/19 A302 RMK A01 T02850189  RH  056%=      5-min Rain = 0
KDO1 141620Z 26003KT 29/19 A302 RMK A01 T02850188  RH  056%=      5-min Rain = 0
KDO1 141621Z 33004KT 28/19 A302 RMK A01 T02840188  RH  056%=      5-min Rain = 0
KDO1 141622Z 33002KT 29/19 A302 RMK A01 T02850188  RH  056%=      5-min Rain = 0
KDO1 141623Z 34002KT 29/19 A302 RMK A01 T02850188  RH  056%=      5-min Rain = 0
KDO1 141624Z 33003KT 28/19 A302 RMK A01 T02840188  RH  056%=      5-min Rain = 0
KDO1 141625Z 29002KT 28/19 A302 RMK A01 T02840190  RH  057%=      5-min Rain = 0
KDO1 141626Z 31003G8KT 29/19 A302 RMK A01 T02860190  RH  056%=      5-min Rain = 0
KDO1 141627Z 34005KT 29/19 A302 RMK A01 T02860189  RH  056%=      5-min Rain = 0
KDO1 141628Z 34005KT 29/19 A302 RMK A01 T02860190  RH  056%=      5-min Rain = 0
KDO1 141629Z 34005KT 29/19 A302 RMK A01 T02860190  RH  056%=      5-min Rain = 0
KDO1 141630Z 34005KT 29/19 A302 RMK A01 T02870189  RH  055%=      5-min Rain = 0
KDO1 141631Z 33004KT 29/19 A302 RMK A01 T02870189  RH  055%=      5-min Rain = 0
KDO1 141632Z 34003KT 29/19 A302 RMK A01 T02870188  RH  055%=      5-min Rain = 0
KDO1 141633Z 30004KT 29/19 A302 RMK A01 T02870189  RH  056%=      5-min Rain = 0
KDO1 141634Z 33004KT 29/19 A302 RMK A01 T02860189  RH  056%=      5-min Rain = 0
KDO1 141635Z 34006KT 29/19 A302 RMK A01 T02850191  RH  057%=      5-min Rain = 0
KDO1 141636Z 34008KT 29/19 A302 RMK A01 T02860192  RH  057%=      5-min Rain = 0
KDO1 141637Z 35007KT 28/19 A3021 RMK A01 T02840191  RH  057%=      5-min Rain = 0
KDO1 141638Z 33010KT 28/19 A3021 RMK A01 T02830191  RH  058%=      5-min Rain = 0
KDO1 141639Z 34006KT 28/19 A3021 RMK A01 T02820191  RH  058%=      5-min Rain = 0
KDO1 141640Z 35006KT 28/19 A3021 RMK A01 T02810192  RH  058%=      5-min Rain = 0
KDO1 141641Z 33007KT 28/19 A3021 RMK A01 T02810191  RH  058%=      5-min Rain = 0
KDO1 141642Z 36005KT 28/19 A3021 RMK A01 T02830194  RH  058%=      5-min Rain = 0
KDO1 141643Z 35006KT 29/20 A302 RMK A01 T02880195  RH  057%=      5-min Rain = 0
KDO1 141644Z 35009KT 29/19 A302 RMK A01 T02920193  RH  055%=      5-min Rain = 0
KDO1 141645Z 34006KT 29/19 A302 RMK A01 T02920194  RH  055%=      5-min Rain = 0
KDO1 141646Z 34006KT 29/19 A302 RMK A01 T02930193  RH  055%=      5-min Rain = 0
KDO1 141647Z 35009KT 29/20 A302 RMK A01 T02940196  RH  055%=      5-min Rain = 0
KDO1 141648Z 35007KT 30/20 A302 RMK A01 T02980195  RH  054%=      5-min Rain = 0
KDO1 141649Z 34007KT 30/20 A302 RMK A01 T02990195  RH  053%=      5-min Rain = 0
KDO1 141650Z 33006KT 30/20 A302 RMK A01 T02990195  RH  054%=      5-min Rain = 0
KDO1 141651Z 36009KT 30/19 A302 RMK A01 T02990193  RH  053%=      5-min Rain = 0
KDO1 141652Z 01009G14KT 30/19 A302 RMK A01 T02960193  RH  054%=      5-min Rain = 0
KDO1 141653Z 01011KT 29/19 A302 RMK A01 T02930189  RH  054%=      5-min Rain = 0
KDO1 141654Z 35010KT 29/19 A302 RMK A01 T02890187  RH  054%=      5-min Rain = 0
KDO1 141655Z 35011KT 29/19 A302 RMK A01 T02900186  RH  053%=      5-min Rain = 0
KDO1 141656Z 36010KT 29/19 A302 RMK A01 T02910185  RH  053%=      5-min Rain = 0
KDO1 141657Z 36009KT 29/19 A302 RMK A01 T02910187  RH  053%=      5-min Rain = 0
KDO1 141658Z 01010KT 29/18 A302 RMK A01 T02930184  RH  052%=      5-min Rain = 0
KDO1 141659Z 00010G15KT 29/18 A302 RMK A01 T02940181  RH  051%=      5-min Rain = 0
KDO1 141700Z 01012KT 29/18 A302 RMK A01 T02930180  RH  051%=      5-min Rain = 0
KDO1 141701Z 36007G13KT 29/18 A302 RMK A01 T02930181  RH  051%=      5-min Rain = 0
KDO1 141702Z 35011KT 29/18 A302 RMK A01 T02940181  RH  051%=      5-min Rain = 0
KDO1 141703Z 00009KT 30/18 A302 RMK A01 T02950179  RH  050%=      5-min Rain = 0
KDO1 141704Z 00010KT 29/18 A302 RMK A01 T02930182  RH  051%=      5-min Rain = 0
KDO1 141705Z 35009KT 29/18 A302 RMK A01 T02930181  RH  051%=      5-min Rain = 0
KDO1 141706Z 36009KT 29/18 A302 RMK A01 T02920181  RH  051%=      5-min Rain = 0
KDO1 141707Z 35009G14KT 29/18 A302 RMK A01 T02900180  RH  051%=      5-min Rain = 0
KDO1 141708Z 34010KT 29/18 A3019 RMK A01 T02880180  RH  052%=      5-min Rain = 0
KDO1 141709Z 34007KT 29/18 A302 RMK A01 T02870180  RH  052%=      5-min Rain = 0
KDO1 141710Z 01007KT 29/18 A3019 RMK A01 T02870181  RH  053%=      5-min Rain = 0
KDO1 141711Z 03006KT 29/18 A3019 RMK A01 T02890181  RH  052%=      5-min Rain = 0
KDO1 141712Z 03006KT 29/18 A3019 RMK A01 T02910181  RH  051%=      5-min Rain = 0
KDO1 141713Z 04004KT 29/18 A3019 RMK A01 T02910182  RH  052%=      5-min Rain = 0
KDO1 141714Z 03006KT 30/18 A3019 RMK A01 T02950183  RH  051%=      5-min Rain = 0
KDO1 141715Z 05008KT 30/18 A3019 RMK A01 T02960182  RH  050%=      5-min Rain = 0
KDO1 141716Z 05007KT 30/18 A3018 RMK A01 T02950182  RH  051%=      5-min Rain = 0
KDO1 141717Z 04005KT 29/18 A3018 RMK A01 T02930182  RH  051%=      5-min Rain = 0
KDO1 141718Z 04003KT 29/18 A3018 RMK A01 T02920180  RH  051%=      5-min Rain = 0
KDO1 141719Z 01003KT 29/18 A3018 RMK A01 T02930179  RH  050%=      5-min Rain = 0
KDO1 141720Z 00002KT 29/18 A3018 RMK A01 T02920178  RH  050%=      5-min Rain = 0
KDO1 141721Z 02002KT 29/18 A3018 RMK A01 T02920181  RH  051%=      5-min Rain = 0
KDO1 141722Z 01005KT 30/18 A3018 RMK A01 T02960180  RH  050%=      5-min Rain = 0
KDO1 141723Z 05005G10KT 30/18 A3018 RMK A01 T02970181  RH  050%=      5-min Rain = 0
KDO1 141724Z 05009KT 30/18 A3018 RMK A01 T02990180  RH  049%=      5-min Rain = 0
KDO1 141725Z 04009KT 30/18 A3018 RMK A01 T02990180  RH  049%=      5-min Rain = 0
KDO1 141726Z 04009KT 30/18 A3018 RMK A01 T02980179  RH  049%=      5-min Rain = 0
KDO1 141727Z 04007KT 30/18 A3018 RMK A01 T02980177  RH  048%=      5-min Rain = 0
KDO1 141728Z 02006KT 30/18 A3018 RMK A01 T02970177  RH  049%=      5-min Rain = 0
KDO1 141729Z 03005KT 30/18 A3018 RMK A01 T02960179  RH  049%=      5-min Rain = 0
KDO1 141730Z 02005KT 30/18 A3018 RMK A01 T02980180  RH  049%=      5-min Rain = 0
KDO1 141731Z 04004KT 30/18 A3018 RMK A01 T03020180  RH  048%=      5-min Rain = 0
KDO1 141732Z 05006KT 30/18 A3018 RMK A01 T03030179  RH  048%=      5-min Rain = 0
KDO1 141733Z 04005KT 30/18 A3017 RMK A01 T03020181  RH  048%=      5-min Rain = 0
KDO1 141734Z 01008KT 30/18 A3017 RMK A01 T03030182  RH  048%=      5-min Rain = 0
KDO1 141735Z 01005KT 30/18 A3017 RMK A01 T03040183  RH  048%=      5-min Rain = 0
KDO1 141736Z 35006KT 31/18 A3017 RMK A01 T03050184  RH  048%=      5-min Rain = 0
KDO1 141737Z 02008KT 31/18 A3017 RMK A01 T03060184  RH  048%=      5-min Rain = 0
KDO1 141738Z 03009KT 31/18 A3017 RMK A01 T03060184  RH  048%=      5-min Rain = 0
KDO1 141739Z 02006KT 31/18 A3017 RMK A01 T03050184  RH  048%=      5-min Rain = 0
KDO1 141740Z 05004KT 31/19 A3017 RMK A01 T03050185  RH  049%=      5-min Rain = 0
KDO1 141741Z 05005KT 31/19 A3017 RMK A01 T03050186  RH  049%=      5-min Rain = 0
KDO1 141742Z 04006KT 31/19 A3017 RMK A01 T03070185  RH  048%=      5-min Rain = 0
KDO1 141743Z 06007KT 31/19 A3017 RMK A01 T03070187  RH  049%=      5-min Rain = 0
KDO1 141744Z 04007KT 31/18 A3017 RMK A01 T03060184  RH  048%=      5-min Rain = 0
KDO1 141745Z 05006KT 30/18 A3017 RMK A01 T03040184  RH  049%=      5-min Rain = 0
KDO1 141746Z 05010KT 30/18 A3017 RMK A01 T03040182  RH  048%=      5-min Rain = 0
KDO1 141747Z 05011KT 30/18 A3017 RMK A01 T03030182  RH  048%=      5-min Rain = 0
KDO1 141748Z 05009KT 30/18 A3017 RMK A01 T03030183  RH  049%=      5-min Rain = 0
KDO1 141749Z 06009KT 30/18 A3017 RMK A01 T03030180  RH  048%=      5-min Rain = 0
KDO1 141750Z 05008KT 30/18 A3016 RMK A01 T03020178  RH  047%=      5-min Rain = 0
KDO1 141751Z 04009KT 30/18 A3016 RMK A01 T03040179  RH  047%=      5-min Rain = 0
KDO1 141752Z 03005KT 31/18 A3016 RMK A01 T03050177  RH  046%=      5-min Rain = 0
KDO1 141753Z 06007KT 30/18 A3016 RMK A01 T03040180  RH  047%=      5-min Rain = 0
KDO1 141754Z 05006KT 30/18 A3016 RMK A01 T03040180  RH  047%=      5-min Rain = 0
KDO1 141755Z 07008KT 30/18 A3016 RMK A01 T03030180  RH  048%=      5-min Rain = 0
KDO1 141756Z 07010KT 30/18 A3016 RMK A01 T03030179  RH  047%=      5-min Rain = 0
KDO1 141757Z 06009KT 30/18 A3016 RMK A01 T03030181  RH  048%=      5-min Rain = 0
KDO1 141758Z 06007KT 30/18 A3015 RMK A01 T03030182  RH  048%=      5-min Rain = 0
KDO1 141759Z 06009KT 30/18 A3015 RMK A01 T03030181  RH  048%=      5-min Rain = 0
KDO1 141800Z 06009KT 30/18 A3015 RMK A01 T03040182  RH  048%=      5-min Rain = 0
KDO1 141801Z 07007KT 30/18 A3015 RMK A01 T03030180  RH  048%=      5-min Rain = 0
KDO1 141802Z 06008KT 30/18 A3015 RMK A01 T03020180  RH  048%=      5-min Rain = 0
KDO1 141803Z 02005KT 30/18 A3015 RMK A01 T03040181  RH  048%=      5-min Rain = 0
KDO1 141804Z 01003KT 31/18 A3015 RMK A01 T03070179  RH  047%=      5-min Rain = 0
KDO1 141805Z 06006G12KT 31/18 A3015 RMK A01 T03060180  RH  047%=      5-min Rain = 0
KDO1 141806Z 07010KT 31/18 A3015 RMK A01 T03070181  RH  047%=      5-min Rain = 0
KDO1 141807Z 06008KT 31/18 A3015 RMK A01 T03080178  RH  046%=      5-min Rain = 0
KDO1 141808Z 04006KT 31/18 A3015 RMK A01 T03080179  RH  046%=      5-min Rain = 0
KDO1 141809Z 07005KT 31/18 A3015 RMK A01 T03080180  RH  046%=      5-min Rain = 0
KDO1 141810Z 08005KT 31/18 A3015 RMK A01 T03100178  RH  045%=      5-min Rain = 0
KDO1 141811Z 08003KT 31/18 A3015 RMK A01 T03080180  RH  046%=      5-min Rain = 0
KDO1 141812Z 10006KT 31/18 A3015 RMK A01 T03070182  RH  047%=      5-min Rain = 0
KDO1 141813Z 07009KT 31/18 A3015 RMK A01 T03090184  RH  047%=      5-min Rain = 0
KDO1 141814Z 07008KT 31/18 A3015 RMK A01 T03130180  RH  045%=      5-min Rain = 0
KDO1 141815Z 07004KT 31/18 A3015 RMK A01 T03120181  RH  046%=      5-min Rain = 0
KDO1 141816Z 06004KT 31/18 A3015 RMK A01 T03110182  RH  046%=      5-min Rain = 0
KDO1 141817Z 05004G10KT 31/18 A3014 RMK A01 T03130177  RH  044%=      5-min Rain = 0
KDO1 141818Z 05009KT 32/18 A3014 RMK A01 T03150179  RH  044%=      5-min Rain = 0
KDO1 141819Z 04006KT 32/18 A3014 RMK A01 T03160178  RH  044%=      5-min Rain = 0
KDO1 141820Z 05005KT 32/18 A3014 RMK A01 T03150177  RH  044%=      5-min Rain = 0
KDO1 141821Z 05005KT 31/18 A3014 RMK A01 T03140179  RH  045%=      5-min Rain = 0
KDO1 141822Z 10006G11KT 31/18 A3014 RMK A01 T03130180  RH  045%=      5-min Rain = 0
KDO1 141823Z 10009KT 32/18 A3014 RMK A01 T03160178  RH  044%=      5-min Rain = 0
KDO1 141824Z 10010KT 32/18 A3014 RMK A01 T03170176  RH  043%=      5-min Rain = 0
KDO1 141825Z 11009KT 32/18 A3014 RMK A01 T03170177  RH  043%=      5-min Rain = 0
KDO1 141826Z 09003KT 32/17 A3014 RMK A01 T03150173  RH  043%=      5-min Rain = 0
KDO1 141827Z 10007KT 31/18 A3014 RMK A01 T03110175  RH  044%=      5-min Rain = 0
KDO1 141828Z 10006KT 31/18 A3014 RMK A01 T03110175  RH  044%=      5-min Rain = 0
KDO1 141829Z 09007KT 31/18 A3014 RMK A01 T03140176  RH  044%=      5-min Rain = 0
KDO1 141830Z 09010KT 32/17 A3014 RMK A01 T03160172  RH  042%=      5-min Rain = 0
KDO1 141831Z 08005KT 32/17 A3014 RMK A01 T03160169  RH  041%=      5-min Rain = 0
KDO1 141832Z 10007KT 32/17 A3014 RMK A01 T03150171  RH  042%=      5-min Rain = 0
KDO1 141833Z 11006KT 32/17 A3014 RMK A01 T03150169  RH  041%=      5-min Rain = 0
KDO1 141834Z 10003KT 32/17 A3014 RMK A01 T03150169  RH  041%=      5-min Rain = 0
KDO1 141835Z 03002KT 32/17 A3014 RMK A01 T03160170  RH  042%=      5-min Rain = 0
KDO1 141836Z 08005G10KT 32/17 A3014 RMK A01 T03160170  RH  042%=      5-min Rain = 0
KDO1 141837Z 10007KT 32/18 A3014 RMK A01 T03150177  RH  044%=      5-min Rain = 0
KDO1 141838Z 10005KT 31/18 A3014 RMK A01 T03140179  RH  045%=      5-min Rain = 0
KDO1 141839Z 05004KT 31/18 A3014 RMK A01 T03140176  RH  044%=      5-min Rain = 0
KDO1 141840Z 07005KT 32/18 A3014 RMK A01 T03150175  RH  043%=      5-min Rain = 0
KDO1 141841Z 09004KT 31/18 A3014 RMK A01 T03140178  RH  044%=      5-min Rain = 0
KDO1 141842Z 09002KT 32/18 A3014 RMK A01 T03160176  RH  043%=      5-min Rain = 0
KDO1 141843Z 08003KT 32/18 A3014 RMK A01 T03170176  RH  043%=      5-min Rain = 0
KDO1 141844Z 10009KT 32/18 A3014 RMK A01 T03170176  RH  043%=      5-min Rain = 0
KDO1 141845Z 11009KT 32/17 A3014 RMK A01 T03170173  RH  042%=      5-min Rain = 0
KDO1 141846Z 11007KT 32/17 A3014 RMK A01 T03170173  RH  042%=      5-min Rain = 0
KDO1 141847Z 12008KT 32/18 A3014 RMK A01 T03170175  RH  043%=      5-min Rain = 0
KDO1 141848Z 12008KT 32/18 A3013 RMK A01 T03190177  RH  043%=      5-min Rain = 0
KDO1 141849Z 10007KT 32/18 A3013 RMK A01 T03210177  RH  042%=      5-min Rain = 0
KDO1 141850Z 07005KT 32/18 A3013 RMK A01 T03210177  RH  042%=      5-min Rain = 0
KDO1 141851Z 08007KT 32/18 A3013 RMK A01 T03200176  RH  042%=      5-min Rain = 0
KDO1 141852Z 08008KT 32/18 A3013 RMK A01 T03170176  RH  043%=      5-min Rain = 0
KDO1 141853Z 09006KT 32/18 A3013 RMK A01 T03150176  RH  043%=      5-min Rain = 0
KDO1 141854Z 09005KT 32/17 A3013 RMK A01 T03150173  RH  043%=      5-min Rain = 0
KDO1 141855Z 10006KT 32/17 A3013 RMK A01 T03150173  RH  043%=      5-min Rain = 0
KDO1 141856Z 12005KT 31/17 A3013 RMK A01 T03140173  RH  043%=      5-min Rain = 0
KDO1 141857Z 17002KT 32/17 A3013 RMK A01 T03170174  RH  043%=      5-min Rain = 0
KDO1 141858Z 19003KT 32/17 A3013 RMK A01 T03190174  RH  042%=      5-min Rain = 0
KDO1 141859Z 07004KT 32/18 A3013 RMK A01 T03210176  RH  042%=      5-min Rain = 0
KDO1 141900Z 08005KT 32/17 A3013 RMK A01 T03220174  RH  041%=      5-min Rain = 0
KDO1 141901Z 10005KT 32/17 A3013 RMK A01 T03190174  RH  042%=      5-min Rain = 0
KDO1 141902Z 11005KT 32/17 A3013 RMK A01 T03190172  RH  041%=      5-min Rain = 0
KDO1 141903Z 13003KT 32/17 A3013 RMK A01 T03190172  RH  041%=      5-min Rain = 0
KDO1 141904Z 09005KT 32/17 A3013 RMK A01 T03190173  RH  042%=      5-min Rain = 0
KDO1 141905Z 08006KT 32/18 A3013 RMK A01 T03200179  RH  043%=      5-min Rain = 0
KDO1 141906Z 09004KT 32/18 A3013 RMK A01 T03220179  RH  043%=      5-min Rain = 0
KDO1 141907Z 10003KT 32/18 A3013 RMK A01 T03210178  RH  043%=      5-min Rain = 0
KDO1 141908Z 12003KT 32/18 A3013 RMK A01 T03180180  RH  044%=      5-min Rain = 0
KDO1 141909Z 09005KT 32/18 A3013 RMK A01 T03210180  RH  043%=      5-min Rain = 0
KDO1 141910Z 11004KT 32/18 A3013 RMK A01 T03220179  RH  043%=      5-min Rain = 0
KDO1 141911Z 06005KT 32/18 A3013 RMK A01 T03200177  RH  043%=      5-min Rain = 0
KDO1 141912Z 05004KT 32/18 A3013 RMK A01 T03190178  RH  043%=      5-min Rain = 0
KDO1 141913Z 06004KT 32/18 A3013 RMK A01 T03180177  RH  043%=      5-min Rain = 0
KDO1 141914Z 07005KT 32/18 A3013 RMK A01 T03170177  RH  043%=      5-min Rain = 0
KDO1 141915Z 11004KT 32/18 A3013 RMK A01 T03160177  RH  044%=      5-min Rain = 0
KDO1 141916Z 14007KT 32/18 A3013 RMK A01 T03170176  RH  043%=      5-min Rain = 0
KDO1 141917Z 15005KT 32/17 A3013 RMK A01 T03180174  RH  042%=      5-min Rain = 0
KDO1 141918Z 13003KT 32/18 A3013 RMK A01 T03190175  RH  042%=      5-min Rain = 0
KDO1 141919Z 17004KT 32/18 A3013 RMK A01 T03190178  RH  043%=      5-min Rain = 0
KDO1 141920Z 17005KT 32/18 A3013 RMK A01 T03220179  RH  043%=      5-min Rain = 0
KDO1 141921Z 16006KT 33/18 A3013 RMK A01 T03250178  RH  042%=      5-min Rain = 0
KDO1 141922Z 17006KT 32/18 A3013 RMK A01 T03240177  RH  042%=      5-min Rain = 0
KDO1 141923Z 19006KT 33/18 A3013 RMK A01 T03250182  RH  042%=      5-min Rain = 0
KDO1 141924Z 19007KT 33/18 A3013 RMK A01 T03280180  RH  041%=      5-min Rain = 0
KDO1 141925Z 17005KT 33/18 A3013 RMK A01 T03290178  RH  041%=      5-min Rain = 0
KDO1 141926Z 13007KT 33/18 A3013 RMK A01 T03260179  RH  042%=      5-min Rain = 0
KDO1 141927Z 12010KT 33/18 A3013 RMK A01 T03280177  RH  041%=      5-min Rain = 0
KDO1 141928Z 12007KT 33/17 A3013 RMK A01 T03310172  RH  039%=      5-min Rain = 0
KDO1 141929Z 09005KT 33/17 A3013 RMK A01 T03300174  RH  040%=      5-min Rain = 0
KDO1 141930Z 10005KT 33/18 A3013 RMK A01 T03310176  RH  040%=      5-min Rain = 0
KDO1 141931Z 08003KT 33/18 A3013 RMK A01 T03330176  RH  039%=      5-min Rain = 0
KDO1 141932Z 05004KT 33/18 A3013 RMK A01 T03300177  RH  040%=      5-min Rain = 0
KDO1 141933Z 03003KT 33/18 A3013 RMK A01 T03270176  RH  041%=      5-min Rain = 0
KDO1 141934Z 04004KT 33/18 A3013 RMK A01 T03260176  RH  041%=      5-min Rain = 0
KDO1 141935Z 04006KT 33/18 A3013 RMK A01 T03270176  RH  041%=      5-min Rain = 0
KDO1 141936Z 00005KT 33/17 A3013 RMK A01 T03250174  RH  041%=      5-min Rain = 0
KDO1 141937Z 34002KT 32/17 A3012 RMK A01 T03220173  RH  041%=      5-min Rain = 0
KDO1 141938Z 04001KT 32/17 A3012 RMK A01 T03200174  RH  042%=      5-min Rain = 0
KDO1 141939Z 04003KT 32/18 A3012 RMK A01 T03190175  RH  042%=      5-min Rain = 0
KDO1 141940Z 05004KT 32/18 A3012 RMK A01 T03190175  RH  042%=      5-min Rain = 0
KDO1 141941Z 05004KT 32/18 A3012 RMK A01 T03190176  RH  042%=      5-min Rain = 0
KDO1 141942Z 07003KT 32/18 A3012 RMK A01 T03200176  RH  042%=      5-min Rain = 0
KDO1 141943Z 09006KT 32/18 A3012 RMK A01 T03230175  RH  041%=      5-min Rain = 0
KDO1 141944Z 10008KT 33/17 A3012 RMK A01 T03250172  RH  040%=      5-min Rain = 0
KDO1 141945Z 09008KT 33/17 A3012 RMK A01 T03270172  RH  040%=      5-min Rain = 0
KDO1 141946Z 08008KT 33/17 A3012 RMK A01 T03280171  RH  039%=      5-min Rain = 0
KDO1 141947Z 08006KT 33/17 A3012 RMK A01 T03280168  RH  038%=      5-min Rain = 0
KDO1 141948Z 07006KT 33/17 A3012 RMK A01 T03280169  RH  039%=      5-min Rain = 0
KDO1 141949Z 09005KT 33/17 A3012 RMK A01 T03290170  RH  039%=      5-min Rain = 0
KDO1 141950Z 11003KT 33/17 A3012 RMK A01 T03290169  RH  038%=      5-min Rain = 0
KDO1 141951Z 08002KT 33/17 A3012 RMK A01 T03280172  RH  039%=      5-min Rain = 0
KDO1 141952Z 08001KT 33/17 A3012 RMK A01 T03290171  RH  039%=      5-min Rain = 0
KDO1 141953Z 13002KT 33/17 A3012 RMK A01 T03300169  RH  038%=      5-min Rain = 0
KDO1 141954Z 14006KT 33/17 A3012 RMK A01 T03300170  RH  039%=      5-min Rain = 0
KDO1 141955Z 14005KT 33/18 A3012 RMK A01 T03290175  RH  040%=      5-min Rain = 0
KDO1 141956Z 13004KT 33/18 A3012 RMK A01 T03300176  RH  040%=      5-min Rain = 0
KDO1 141957Z 13003KT 33/18 A3012 RMK A01 T03330177  RH  040%=      5-min Rain = 0
KDO1 141958Z 21000KT 33/18 A3012 RMK A01 T03340176  RH  039%=      5-min Rain = 0
KDO1 141959Z 01001KT 33/17 A3012 RMK A01 T03330174  RH  039%=      5-min Rain = 0
KDO1 142000Z 34002KT 33/18 A3011 RMK A01 T03310175  RH  040%=      5-min Rain = 0
KDO1 142001Z 04005KT 33/18 A3011 RMK A01 T03300177  RH  040%=      5-min Rain = 0
KDO1 142002Z 07009KT 33/17 A3011 RMK A01 T03310173  RH  039%=      5-min Rain = 0
KDO1 142003Z 06008KT 33/17 A3011 RMK A01 T03310172  RH  039%=      5-min Rain = 0
KDO1 142004Z 09007KT 33/17 A3011 RMK A01 T03310172  RH  039%=      5-min Rain = 0
KDO1 142005Z 05009KT 33/17 A3011 RMK A01 T03320170  RH  038%=      5-min Rain = 0
KDO1 142006Z 03004KT 33/17 A3011 RMK A01 T03290168  RH  038%=      5-min Rain = 0
KDO1 142007Z 03004KT 33/17 A3011 RMK A01 T03260169  RH  039%=      5-min Rain = 0
KDO1 142008Z 03004KT 33/17 A3011 RMK A01 T03250169  RH  039%=      5-min Rain = 0
KDO1 142009Z 03005KT 32/17 A3011 RMK A01 T03240169  RH  039%=      5-min Rain = 0
KDO1 142010Z 06004KT 32/17 A3011 RMK A01 T03240170  RH  040%=      5-min Rain = 0
KDO1 142011Z 14006KT 33/17 A3011 RMK A01 T03270173  RH  040%=      5-min Rain = 0
KDO1 142012Z 10007KT 33/18 A3011 RMK A01 T03320175  RH  039%=      5-min Rain = 0
KDO1 142013Z 09006KT 34/17 A3011 RMK A01 T03350174  RH  038%=      5-min Rain = 0
KDO1 142014Z 11006KT 34/18 A3011 RMK A01 T03350175  RH  038%=      5-min Rain = 0
KDO1 142015Z 12006KT 34/18 A3011 RMK A01 T03370175  RH  038%=      5-min Rain = 0
KDO1 142016Z 15005KT 34/17 A3011 RMK A01 T03390174  RH  037%=      5-min Rain = 0
KDO1 142017Z 19003KT 34/18 A3011 RMK A01 T03390175  RH  038%=      5-min Rain = 0
KDO1 142018Z 21003KT 34/17 A3011 RMK A01 T03380174  RH  038%=      5-min Rain = 0
KDO1 142019Z 26001KT 34/17 A301 RMK A01 T03360171  RH  037%=      5-min Rain = 0
KDO1 142020Z 20002KT 33/17 A301 RMK A01 T03340171  RH  038%=      5-min Rain = 0
KDO1 142021Z 22004KT 33/17 A301 RMK A01 T03330174  RH  039%=      5-min Rain = 0
KDO1 142022Z 22004KT 33/17 A301 RMK A01 T03330172  RH  038%=      5-min Rain = 0
KDO1 142023Z 17004KT 33/17 A301 RMK A01 T03320174  RH  039%=      5-min Rain = 0
KDO1 142024Z 14006KT 33/18 A301 RMK A01 T03320175  RH  039%=      5-min Rain = 0
KDO1 142025Z 14009KT 34/18 A301 RMK A01 T03370175  RH  038%=      5-min Rain = 0
KDO1 142026Z 14008KT 34/17 A301 RMK A01 T03380172  RH  037%=      5-min Rain = 0
KDO1 142027Z 13005KT 34/17 A301 RMK A01 T03370171  RH  037%=      5-min Rain = 0
KDO1 142028Z 11002KT 33/17 A301 RMK A01 T03340169  RH  037%=      5-min Rain = 0
KDO1 142029Z 30003KT 33/17 A301 RMK A01 T03320168  RH  038%=      5-min Rain = 0
KDO1 142030Z 29001KT 33/17 A301 RMK A01 T03310169  RH  038%=      5-min Rain = 0
KDO1 142031Z 13002KT 33/17 A301 RMK A01 T03310171  RH  038%=      5-min Rain = 0
KDO1 142032Z 13007KT 34/17 A301 RMK A01 T03350172  RH  038%=      5-min Rain = 0
KDO1 142033Z 14005KT 34/17 A301 RMK A01 T03360169  RH  037%=      5-min Rain = 0
KDO1 142034Z 13003KT 33/17 A301 RMK A01 T03340167  RH  037%=      5-min Rain = 0
KDO1 142035Z 10001KT 33/16 A301 RMK A01 T03330163  RH  036%=      5-min Rain = 0
KDO1 142036Z 18001KT 33/16 A301 RMK A01 T03320164  RH  037%=      5-min Rain = 0
KDO1 142037Z 16002KT 34/17 A301 RMK A01 T03350166  RH  036%=      5-min Rain = 0
KDO1 142038Z 22002KT 34/17 A301 RMK A01 T03370165  RH  036%=      5-min Rain = 0
KDO1 142039Z 20002KT 34/16 A301 RMK A01 T03370164  RH  036%=      5-min Rain = 0
KDO1 142040Z 15006KT 34/17 A301 RMK A01 T03360172  RH  038%=      5-min Rain = 0
KDO1 142041Z 15007KT 34/18 A301 RMK A01 T03380178  RH  039%=      5-min Rain = 0
KDO1 142042Z 14007KT 34/18 A3009 RMK A01 T03390178  RH  038%=      5-min Rain = 0
KDO1 142043Z 13007KT 34/18 A3009 RMK A01 T03400176  RH  038%=      5-min Rain = 0
KDO1 142044Z 14006KT 34/18 A3009 RMK A01 T03390176  RH  038%=      5-min Rain = 0
KDO1 142045Z 14006KT 34/18 A3009 RMK A01 T03390176  RH  038%=      5-min Rain = 0
KDO1 142046Z 13006KT 34/18 A3009 RMK A01 T03360176  RH  039%=      5-min Rain = 0
KDO1 142047Z 13003KT 34/17 A3009 RMK A01 T03360173  RH  038%=      5-min Rain = 0
KDO1 142048Z 14005KT 33/17 A3009 RMK A01 T03340174  RH  038%=      5-min Rain = 0
KDO1 142049Z 13004KT 33/17 A3009 RMK A01 T03340172  RH  038%=      5-min Rain = 0
KDO1 142050Z 16002KT 33/17 A3009 RMK A01 T03320172  RH  038%=      5-min Rain = 0
KDO1 142051Z 19004KT 33/17 A3009 RMK A01 T03330172  RH  038%=      5-min Rain = 0
KDO1 142052Z 16007KT 33/17 A3009 RMK A01 T03340173  RH  038%=      5-min Rain = 0
KDO1 142053Z 19004KT 34/17 A3009 RMK A01 T03360171  RH  037%=      5-min Rain = 0
KDO1 142054Z 14006KT 34/17 A3009 RMK A01 T03370171  RH  037%=      5-min Rain = 0
KDO1 142055Z 14004KT 34/17 A3009 RMK A01 T03390168  RH  036%=      5-min Rain = 0
KDO1 142056Z 15003KT 34/16 A3009 RMK A01 T03400160  RH  034%=      5-min Rain = 0
KDO1 142057Z 13001KT 34/16 A3009 RMK A01 T03390159  RH  034%=      5-min Rain = 0
KDO1 142058Z 09001KT 34/16 A3009 RMK A01 T03390159  RH  034%=      5-min Rain = 0
KDO1 142059Z 33001KT 34/16 A3009 RMK A01 T03400162  RH  035%=      5-min Rain = 0
KDO1 142100Z 34003KT 34/17 A3009 RMK A01 T03410167  RH  036%=      5-min Rain = 0
KDO1 142101Z 34004KT 34/17 A3009 RMK A01 T03390170  RH  036%=      5-min Rain = 0
KDO1 142102Z 31004KT 34/17 A3009 RMK A01 T03380171  RH  037%=      5-min Rain = 0
KDO1 142103Z 27001KT 34/17 A3009 RMK A01 T03370168  RH  036%=      5-min Rain = 0
KDO1 142104Z 13003KT 34/17 A3009 RMK A01 T03360171  RH  037%=      5-min Rain = 0
KDO1 142105Z 14005KT 34/18 A3009 RMK A01 T03390176  RH  038%=      5-min Rain = 0
KDO1 142106Z 14005KT 34/18 A3009 RMK A01 T03410176  RH  037%=      5-min Rain = 0
KDO1 142107Z 12004KT 34/18 A3009 RMK A01 T03400175  RH  038%=      5-min Rain = 0
KDO1 142108Z 12007KT 34/18 A3009 RMK A01 T03380175  RH  038%=      5-min Rain = 0
KDO1 142109Z 13005KT 34/18 A3009 RMK A01 T03380178  RH  039%=      5-min Rain = 0
KDO1 142110Z 15006KT 34/18 A3009 RMK A01 T03410178  RH  038%=      5-min Rain = 0
KDO1 142111Z 13008KT 34/18 A3009 RMK A01 T03440179  RH  038%=      5-min Rain = 0
KDO1 142112Z 14008KT 35/18 A3009 RMK A01 T03450177  RH  037%=      5-min Rain = 0
KDO1 142113Z 16007KT 34/18 A3009 RMK A01 T03430176  RH  037%=      5-min Rain = 0
KDO1 142114Z 14007KT 34/18 A3009 RMK A01 T03410175  RH  037%=      5-min Rain = 0
KDO1 142115Z 11005KT 34/17 A3009 RMK A01 T03400173  RH  037%=      5-min Rain = 0
KDO1 142116Z 12003KT 34/17 A3009 RMK A01 T03360173  RH  038%=      5-min Rain = 0
KDO1 142117Z 18005KT 34/17 A3009 RMK A01 T03350173  RH  038%=      5-min Rain = 0
KDO1 142118Z 18005KT 34/17 A3009 RMK A01 T03380173  RH  038%=      5-min Rain = 0
KDO1 142119Z 19004KT 34/17 A3009 RMK A01 T03390173  RH  037%=      5-min Rain = 0
KDO1 142120Z 11009KT 34/17 A3008 RMK A01 T03420174  RH  037%=      5-min Rain = 0
KDO1 142121Z 11009KT 34/18 A3009 RMK A01 T03430175  RH  037%=      5-min Rain = 0
KDO1 142122Z 12006KT 34/17 A3009 RMK A01 T03440173  RH  036%=      5-min Rain = 0
KDO1 142123Z 10006KT 34/17 A3009 RMK A01 T03420172  RH  036%=      5-min Rain = 0
KDO1 142124Z 10005KT 34/17 A3009 RMK A01 T03390171  RH  037%=      5-min Rain = 0
KDO1 142125Z 11004KT 34/17 A3008 RMK A01 T03360169  RH  037%=      5-min Rain = 0
KDO1 142126Z 10002KT 34/17 A3008 RMK A01 T03350171  RH  038%=      5-min Rain = 0
KDO1 142127Z 09002KT 34/17 A3008 RMK A01 T03350169  RH  037%=      5-min Rain = 0
KDO1 142128Z 11002KT 34/17 A3008 RMK A01 T03350167  RH  037%=      5-min Rain = 0
KDO1 142129Z 12002KT 34/17 A3008 RMK A01 T03350168  RH  037%=      5-min Rain = 0
KDO1 142130Z 10002KT 34/17 A3008 RMK A01 T03360168  RH  037%=      5-min Rain = 0
KDO1 142131Z 06002KT 34/17 A3008 RMK A01 T03380170  RH  037%=      5-min Rain = 0
KDO1 142132Z 01003KT 34/17 A3008 RMK A01 T03380168  RH  036%=      5-min Rain = 0
KDO1 142133Z 02003KT 34/17 A3008 RMK A01 T03360170  RH  037%=      5-min Rain = 0
KDO1 142134Z 16002KT 34/17 A3008 RMK A01 T03350168  RH  037%=      5-min Rain = 0
KDO1 142135Z 17004KT 34/17 A3008 RMK A01 T03360169  RH  037%=      5-min Rain = 0
KDO1 142136Z 16004KT 34/17 A3008 RMK A01 T03380171  RH  037%=      5-min Rain = 0
KDO1 142137Z 15003KT 34/17 A3008 RMK A01 T03400171  RH  036%=      5-min Rain = 0
KDO1 142138Z 14003KT 34/17 A3008 RMK A01 T03420174  RH  037%=      5-min Rain = 0
KDO1 142139Z 17004KT 34/17 A3008 RMK A01 T03440170  RH  036%=      5-min Rain = 0
KDO1 142140Z 17003KT 34/17 A3008 RMK A01 T03430172  RH  036%=      5-min Rain = 0
KDO1 142141Z 16001KT 34/17 A3008 RMK A01 T03430173  RH  036%=      5-min Rain = 0
KDO1 142142Z 02002KT 34/17 A3008 RMK A01 T03440170  RH  036%=      5-min Rain = 0
KDO1 142143Z 02002KT 34/17 A3008 RMK A01 T03430167  RH  035%=      5-min Rain = 0
KDO1 142144Z 32000KT 34/17 A3008 RMK A01 T03410168  RH  036%=      5-min Rain = 0
KDO1 142145Z 06001KT 34/17 A3008 RMK A01 T03410167  RH  036%=      5-min Rain = 0
KDO1 142146Z 11005KT 34/17 A3008 RMK A01 T03420170  RH  036%=      5-min Rain = 0
KDO1 142147Z 10006KT 34/17 A3008 RMK A01 T03430172  RH  036%=      5-min Rain = 0
KDO1 142148Z 09004KT 34/17 A3008 RMK A01 T03440171  RH  036%=      5-min Rain = 0
KDO1 142149Z 13002KT 34/17 A3008 RMK A01 T03430173  RH  037%=      5-min Rain = 0
KDO1 142150Z 14002KT 34/17 A3007 RMK A01 T03440172  RH  036%=      5-min Rain = 0
KDO1 142151Z 15003KT 35/17 A3007 RMK A01 T03460173  RH  036%=      5-min Rain = 0
KDO1 142152Z 13002KT 35/17 A3007 RMK A01 T03470171  RH  035%=      5-min Rain = 0
KDO1 142153Z 10002KT 35/17 A3007 RMK A01 T03460173  RH  036%=      5-min Rain = 0
KDO1 142154Z 07003KT 35/17 A3007 RMK A01 T03460170  RH  035%=      5-min Rain = 0
KDO1 142155Z 08005KT 35/17 A3007 RMK A01 T03450168  RH  035%=      5-min Rain = 0
KDO1 142156Z 08005KT 34/17 A3007 RMK A01 T03440165  RH  035%=      5-min Rain = 0
KDO1 142157Z 08005KT 34/17 A3007 RMK A01 T03440165  RH  034%=      5-min Rain = 0
KDO1 142158Z 06004KT 35/17 A3007 RMK A01 T03450165  RH  034%=      5-min Rain = 0
KDO1 142159Z 07004KT 35/16 A3007 RMK A01 T03450163  RH  034%=      5-min Rain = 0
KDO1 142200Z 03002KT 34/16 A3007 RMK A01 T03430163  RH  034%=      5-min Rain = 0
KDO1 142201Z 34001KT 34/16 A3007 RMK A01 T03410162  RH  034%=      5-min Rain = 0
KDO1 142202Z 14003KT 34/16 A3007 RMK A01 T03400162  RH  035%=      5-min Rain = 0
KDO1 142203Z 12004KT 34/16 A3007 RMK A01 T03430164  RH  034%=      5-min Rain = 0
KDO1 142204Z 12002KT 34/16 A3007 RMK A01 T03430162  RH  034%=      5-min Rain = 0
KDO1 142205Z 11004KT 34/16 A3007 RMK A01 T03430163  RH  034%=      5-min Rain = 0
KDO1 142206Z 12004KT 34/16 A3007 RMK A01 T03440161  RH  033%=      5-min Rain = 0
KDO1 142207Z 09005KT 35/16 A3007 RMK A01 T03450163  RH  034%=      5-min Rain = 0
KDO1 142208Z 11003KT 35/16 A3007 RMK A01 T03470162  RH  033%=      5-min Rain = 0
KDO1 142209Z 12006KT 35/16 A3007 RMK A01 T03480164  RH  033%=      5-min Rain = 0
KDO1 142210Z 12007KT 35/17 A3007 RMK A01 T03510165  RH  033%=      5-min Rain = 0
KDO1 142211Z 09007KT 35/16 A3007 RMK A01 T03520162  RH  032%=      5-min Rain = 0
KDO1 142212Z 09006KT 35/16 A3007 RMK A01 T03500163  RH  033%=      5-min Rain = 0
KDO1 142213Z 07006KT 35/17 A3007 RMK A01 T03500165  RH  033%=      5-min Rain = 0
KDO1 142214Z 06006KT 35/16 A3007 RMK A01 T03520164  RH  033%=      5-min Rain = 0
KDO1 142215Z 08005KT 35/16 A3007 RMK A01 T03510164  RH  033%=      5-min Rain = 0
KDO1 142216Z 07006KT 35/16 A3007 RMK A01 T03490162  RH  033%=      5-min Rain = 0
KDO1 142217Z 07006KT 35/16 A3007 RMK A01 T03460161  RH  033%=      5-min Rain = 0
KDO1 142218Z 11009KT 34/16 A3007 RMK A01 T03440163  RH  034%=      5-min Rain = 0
KDO1 142219Z 10007KT 34/16 A3006 RMK A01 T03440162  RH  034%=      5-min Rain = 0
KDO1 142220Z 10007KT 34/17 A3006 RMK A01 T03440165  RH  034%=      5-min Rain = 0
KDO1 142221Z 10010KT 35/16 A3006 RMK A01 T03470164  RH  034%=      5-min Rain = 0
KDO1 142222Z 10010KT 35/16 A3006 RMK A01 T03470163  RH  034%=      5-min Rain = 0
KDO1 142223Z 09007KT 35/16 A3006 RMK A01 T03450162  RH  034%=      5-min Rain = 0
KDO1 142224Z 06004KT 34/16 A3006 RMK A01 T03410160  RH  034%=      5-min Rain = 0
KDO1 142225Z 04004KT 34/16 A3006 RMK A01 T03390162  RH  035%=      5-min Rain = 0
KDO1 142226Z 07006KT 34/16 A3006 RMK A01 T03410163  RH  035%=      5-min Rain = 0
KDO1 142227Z 06007KT 34/16 A3006 RMK A01 T03430164  RH  034%=      5-min Rain = 0
KDO1 142228Z 09004KT 34/16 A3006 RMK A01 T03440163  RH  034%=      5-min Rain = 0
KDO1 142229Z 08006KT 34/16 A3006 RMK A01 T03440164  RH  034%=      5-min Rain = 0
KDO1 142230Z 07006G11KT 34/16 A3006 RMK A01 T03440164  RH  034%=      5-min Rain = 0
KDO1 142231Z 07009KT 35/16 A3006 RMK A01 T03450164  RH  034%=      5-min Rain = 0
KDO1 142232Z 07008KT 34/16 A3006 RMK A01 T03430164  RH  034%=      5-min Rain = 0
KDO1 142233Z 06007KT 34/16 A3006 RMK A01 T03390162  RH  035%=      5-min Rain = 0
KDO1 142234Z 06007KT 34/16 A3006 RMK A01 T03360163  RH  036%=      5-min Rain = 0
KDO1 142235Z 04005KT 34/16 A3006 RMK A01 T03350161  RH  035%=      5-min Rain = 0
KDO1 142236Z 02004KT 33/16 A3006 RMK A01 T03340160  RH  035%=      5-min Rain = 0
KDO1 142237Z 09007KT 34/16 A3006 RMK A01 T03350162  RH  036%=      5-min Rain = 0
KDO1 142238Z 08007KT 34/16 A3006 RMK A01 T03370163  RH  035%=      5-min Rain = 0
KDO1 142239Z 09005KT 34/16 A3006 RMK A01 T03370161  RH  035%=      5-min Rain = 0
KDO1 142240Z 10007KT 34/16 A3006 RMK A01 T03350162  RH  036%=      5-min Rain = 0
KDO1 142241Z 12005KT 33/16 A3006 RMK A01 T03320161  RH  036%=      5-min Rain = 0
KDO1 142242Z 13006KT 33/16 A3006 RMK A01 T03310160  RH  036%=      5-min Rain = 0
KDO1 142243Z 13005KT 33/16 A3006 RMK A01 T03310161  RH  036%=      5-min Rain = 0
KDO1 142244Z 10003KT 33/16 A3006 RMK A01 T03340163  RH  036%=      5-min Rain = 0
KDO1 142245Z 10003KT 34/17 A3006 RMK A01 T03390166  RH  036%=      5-min Rain = 0
KDO1 142246Z 10003KT 34/16 A3006 RMK A01 T03420163  RH  034%=      5-min Rain = 0
KDO1 142247Z 10002KT 34/16 A3006 RMK A01 T03420161  RH  034%=      5-min Rain = 0
KDO1 142248Z 09002KT 34/16 A3006 RMK A01 T03420161  RH  034%=      5-min Rain = 0
KDO1 142249Z 05003KT 34/16 A3006 RMK A01 T03420162  RH  034%=      5-min Rain = 0
KDO1 142250Z 05003KT 34/16 A3006 RMK A01 T03420163  RH  034%=      5-min Rain = 0
KDO1 142251Z 06003KT 34/16 A3006 RMK A01 T03430161  RH  034%=      5-min Rain = 0
KDO1 142252Z 06001KT 34/16 A3006 RMK A01 T03420162  RH  034%=      5-min Rain = 0
KDO1 142253Z 02003KT 34/16 A3006 RMK A01 T03420162  RH  034%=      5-min Rain = 0
KDO1 142254Z 01004KT 34/16 A3006 RMK A01 T03410163  RH  035%=      5-min Rain = 0
KDO1 142255Z 01003KT 34/16 A3006 RMK A01 T03410164  RH  035%=      5-min Rain = 0
KDO1 142256Z 34004KT 34/16 A3006 RMK A01 T03430163  RH  034%=      5-min Rain = 0
KDO1 142257Z 36002KT 34/16 A3006 RMK A01 T03440163  RH  034%=      5-min Rain = 0
KDO1 142258Z 07003KT 35/17 A3006 RMK A01 T03450165  RH  034%=      5-min Rain = 0
KDO1 142259Z 07004KT 35/17 A3006 RMK A01 T03450165  RH  034%=      5-min Rain = 0
KDO1 142300Z 05004KT 35/17 A3006 RMK A01 T03460165  RH  034%=      5-min Rain = 0
KDO1 142301Z 11004KT 35/17 A3006 RMK A01 T03460166  RH  034%=      5-min Rain = 0
KDO1 142302Z 11004KT 35/17 A3006 RMK A01 T03450165  RH  034%=      5-min Rain = 0
KDO1 142303Z 10007KT 35/17 A3006 RMK A01 T03460165  RH  034%=      5-min Rain = 0
KDO1 142304Z 09005KT 35/16 A3006 RMK A01 T03460163  RH  034%=      5-min Rain = 0
KDO1 142305Z 11008KT 35/16 A3006 RMK A01 T03460164  RH  034%=      5-min Rain = 0
KDO1 142306Z 11007KT 35/16 A3006 RMK A01 T03460163  RH  034%=      5-min Rain = 0
KDO1 142307Z 11005KT 35/16 A3006 RMK A01 T03450162  RH  034%=      5-min Rain = 0
KDO1 142308Z 14003KT 34/16 A3006 RMK A01 T03430162  RH  034%=      5-min Rain = 0
KDO1 142309Z 14003KT 34/16 A3006 RMK A01 T03430162  RH  034%=      5-min Rain = 0
KDO1 142310Z 15003KT 34/16 A3006 RMK A01 T03430163  RH  034%=      5-min Rain = 0
KDO1 142311Z 14001KT 34/16 A3006 RMK A01 T03440160  RH  033%=      5-min Rain = 0
KDO1 142312Z 16001KT 35/16 A3006 RMK A01 T03450162  RH  034%=      5-min Rain = 0
KDO1 142313Z 14001KT 35/16 A3006 RMK A01 T03450161  RH  033%=      5-min Rain = 0
KDO1 142314Z 06003KT 35/16 A3006 RMK A01 T03450162  RH  034%=      5-min Rain = 0
KDO1 142315Z 06004G9KT 35/16 A3006 RMK A01 T03450164  RH  034%=      5-min Rain = 0
KDO1 142316Z 06005KT 35/16 A3006 RMK A01 T03460156  RH  032%=      5-min Rain = 0
KDO1 142317Z 07001KT 34/16 A3006 RMK A01 T03440156  RH  033%=      5-min Rain = 0
KDO1 142318Z 04003KT 34/15 A3006 RMK A01 T03430154  RH  032%=      5-min Rain = 0
KDO1 142319Z 08006KT 34/16 A3006 RMK A01 T03420157  RH  033%=      5-min Rain = 0
KDO1 142320Z 08007KT 34/16 A3006 RMK A01 T03430156  RH  033%=      5-min Rain = 0
KDO1 142321Z 08007KT 34/16 A3006 RMK A01 T03440157  RH  033%=      5-min Rain = 0
KDO1 142322Z 08007KT 34/16 A3006 RMK A01 T03440157  RH  033%=      5-min Rain = 0
KDO1 142323Z 07005KT 34/16 A3006 RMK A01 T03440157  RH  033%=      5-min Rain = 0
KDO1 142324Z 05003KT 34/16 A3006 RMK A01 T03440157  RH  033%=      5-min Rain = 0
KDO1 142325Z 04001KT 34/15 A3006 RMK A01 T03440154  RH  032%=      5-min Rain = 0
KDO1 142326Z 10002KT 34/16 A3006 RMK A01 T03430156  RH  033%=      5-min Rain = 0
KDO1 142327Z 10004KT 34/16 A3006 RMK A01 T03430156  RH  033%=      5-min Rain = 0
KDO1 142328Z 12003KT 35/16 A3006 RMK A01 T03450157  RH  033%=      5-min Rain = 0
KDO1 142329Z 11005KT 35/16 A3006 RMK A01 T03450156  RH  032%=      5-min Rain = 0
KDO1 142330Z 11005KT 35/16 A3006 RMK A01 T03460159  RH  033%=      5-min Rain = 0
KDO1 142331Z 06007KT 35/16 A3006 RMK A01 T03460159  RH  033%=      5-min Rain = 0
KDO1 142332Z 06006KT 34/15 A3006 RMK A01 T03440154  RH  032%=      5-min Rain = 0
KDO1 142333Z 07006KT 34/16 A3006 RMK A01 T03420158  RH  033%=      5-min Rain = 0
KDO1 142334Z 08005KT 34/16 A3006 RMK A01 T03420157  RH  033%=      5-min Rain = 0
KDO1 142335Z 07004KT 34/16 A3006 RMK A01 T03420156  RH  033%=      5-min Rain = 0
KDO1 142336Z 07004KT 34/16 A3006 RMK A01 T03410156  RH  033%=      5-min Rain = 0
KDO1 142337Z 07003KT 34/16 A3006 RMK A01 T03410155  RH  033%=      5-min Rain = 0
KDO1 142338Z 09002KT 34/16 A3006 RMK A01 T03410155  RH  033%=      5-min Rain = 0
KDO1 142339Z 10004KT 34/16 A3006 RMK A01 T03400158  RH  034%=      5-min Rain = 0
KDO1 142340Z 08004KT 34/16 A3006 RMK A01 T03420159  RH  034%=      5-min Rain = 0
KDO1 142341Z 08004KT 34/16 A3005 RMK A01 T03430156  RH  033%=      5-min Rain = 0
KDO1 142342Z 09003KT 34/16 A3005 RMK A01 T03430156  RH  033%=      5-min Rain = 0
KDO1 142343Z 10003KT 34/16 A3005 RMK A01 T03420160  RH  034%=      5-min Rain = 0
KDO1 142344Z 11004KT 34/16 A3005 RMK A01 T03420157  RH  033%=      5-min Rain = 0
KDO1 142345Z 10005KT 34/16 A3005 RMK A01 T03420157  RH  033%=      5-min Rain = 0
KDO1 142346Z 10005KT 34/16 A3005 RMK A01 T03420158  RH  033%=      5-min Rain = 0
KDO1 142347Z 09006KT 34/16 A3005 RMK A01 T03420160  RH  034%=      5-min Rain = 0
KDO1 142348Z 07006KT 34/16 A3005 RMK A01 T03420161  RH  034%=      5-min Rain = 0
KDO1 142349Z 07006KT 34/16 A3006 RMK A01 T03410161  RH  034%=      5-min Rain = 0
KDO1 142350Z 07006KT 34/16 A3006 RMK A01 T03400160  RH  034%=      5-min Rain = 0
KDO1 142351Z 08005KT 34/16 A3005 RMK A01 T03390158  RH  034%=      5-min Rain = 0
KDO1 142352Z 06004KT 34/16 A3005 RMK A01 T03380160  RH  035%=      5-min Rain = 0
KDO1 142353Z 07006KT 34/16 A3005 RMK A01 T03390160  RH  034%=      5-min Rain = 0
KDO1 142354Z 08005KT 34/16 A3005 RMK A01 T03390158  RH  034%=      5-min Rain = 0
KDO1 142355Z 09004KT 34/16 A3005 RMK A01 T03390157  RH  034%=      5-min Rain = 0
KDO1 142356Z 07006KT 34/16 A3005 RMK A01 T03380157  RH  034%=      5-min Rain = 0
KDO1 142357Z 06005KT 34/15 A3005 RMK A01 T03390154  RH  033%=      5-min Rain = 0
KDO1 142358Z 06005KT 34/15 A3005 RMK A01 T03390153  RH  033%=      5-min Rain = 0
KDO1 142359Z 07005KT 34/16 A3005 RMK A01 T03400155  RH  033%=      5-min Rain = 0
KDO1 150000Z 07004KT 34/15 A3005 RMK A01 T03400153  RH  033%=      5-min Rain = 0
KDO1 150001Z 06004KT 34/16 A3005 RMK A01 T03400155  RH  033%=      5-min Rain = 0
KDO1 150002Z 03004KT 34/15 A3005 RMK A01 T03400151  RH  032%=      5-min Rain = 0
KDO1 150003Z 03002KT 34/15 A3005 RMK A01 T03390151  RH  032%=      5-min Rain = 0
KDO1 150004Z 06003KT 34/15 A3005 RMK A01 T03390151  RH  032%=      5-min Rain = 0
KDO1 150005Z 07004KT 34/15 A3005 RMK A01 T03400151  RH  032%=      5-min Rain = 0
KDO1 150006Z 04003KT 34/15 A3006 RMK A01 T03400149  RH  032%=      5-min Rain = 0
KDO1 150007Z 04004KT 34/14 A3006 RMK A01 T03400143  RH  031%=      5-min Rain = 0
KDO1 150008Z 06005KT 34/15 A3006 RMK A01 T03400145  RH  031%=      5-min Rain = 0
KDO1 150009Z 06005KT 34/15 A3006 RMK A01 T03390147  RH  032%=      5-min Rain = 0
KDO1 150010Z 08006KT 34/15 A3006 RMK A01 T03380149  RH  032%=      5-min Rain = 0
KDO1 150011Z 09006KT 34/15 A3006 RMK A01 T03370148  RH  032%=      5-min Rain = 0
KDO1 150012Z 09007KT 34/15 A3006 RMK A01 T03360148  RH  032%=      5-min Rain = 0
KDO1 150013Z 08005KT 34/15 A3006 RMK A01 T03350146  RH  032%=      5-min Rain = 0
KDO1 150014Z 07004KT 34/15 A3006 RMK A01 T03350147  RH  032%=      5-min Rain = 0
KDO1 150015Z 08003KT 33/15 A3005 RMK A01 T03340147  RH  032%=      5-min Rain = 0
KDO1 150016Z 10004KT 33/15 A3005 RMK A01 T03340150  RH  033%=      5-min Rain = 0
KDO1 150017Z 10004KT 34/15 A3005 RMK A01 T03350149  RH  033%=      5-min Rain = 0
KDO1 150018Z 10005KT 34/15 A3005 RMK A01 T03350149  RH  033%=      5-min Rain = 0
KDO1 150019Z 09007KT 34/15 A3005 RMK A01 T03350148  RH  033%=      5-min Rain = 0
KDO1 150020Z 09006KT 34/15 A3005 RMK A01 T03360150  RH  033%=      5-min Rain = 0
KDO1 150021Z 08005KT 34/15 A3005 RMK A01 T03350149  RH  033%=      5-min Rain = 0
KDO1 150022Z 08006KT 34/15 A3005 RMK A01 T03350150  RH  033%=      5-min Rain = 0
KDO1 150023Z 08005KT 34/15 A3005 RMK A01 T03350151  RH  033%=      5-min Rain = 0
KDO1 150024Z 09005KT 34/15 A3005 RMK A01 T03350152  RH  033%=      5-min Rain = 0
KDO1 150025Z 08004KT 33/15 A3005 RMK A01 T03340152  RH  033%=      5-min Rain = 0
KDO1 150026Z 08005KT 33/15 A3005 RMK A01 T03340153  RH  034%=      5-min Rain = 0
KDO1 150027Z 10005KT 34/15 A3005 RMK A01 T03350151  RH  033%=      5-min Rain = 0
KDO1 150028Z 10006KT 33/15 A3006 RMK A01 T03340150  RH  033%=      5-min Rain = 0
KDO1 150029Z 10005KT 33/15 A3006 RMK A01 T03330150  RH  033%=      5-min Rain = 0
KDO1 150030Z 07006KT 33/15 A3006 RMK A01 T03330152  RH  034%=      5-min Rain = 0
KDO1 150031Z 09005KT 33/15 A3006 RMK A01 T03320152  RH  034%=      5-min Rain = 0
KDO1 150032Z 08005KT 33/15 A3006 RMK A01 T03320151  RH  034%=      5-min Rain = 0
KDO1 150033Z 07005KT 33/15 A3006 RMK A01 T03320152  RH  034%=      5-min Rain = 0
KDO1 150034Z 08005KT 33/15 A3006 RMK A01 T03310151  RH  034%=      5-min Rain = 0
KDO1 150035Z 09006KT 33/15 A3006 RMK A01 T03310151  RH  034%=      5-min Rain = 0
KDO1 150036Z 09006KT 33/15 A3006 RMK A01 T03300149  RH  034%=      5-min Rain = 0
KDO1 150037Z 09005KT 33/15 A3006 RMK A01 T03300150  RH  034%=      5-min Rain = 0
KDO1 150038Z 09006KT 33/15 A3006 RMK A01 T03300151  RH  034%=      5-min Rain = 0
KDO1 150039Z 09005KT 33/15 A3006 RMK A01 T03290150  RH  034%=      5-min Rain = 0
KDO1 150040Z 09005KT 33/15 A3006 RMK A01 T03290149  RH  034%=      5-min Rain = 0
KDO1 150041Z 09004KT 33/15 A3006 RMK A01 T03280150  RH  034%=      5-min Rain = 0
KDO1 150042Z 10005KT 33/15 A3006 RMK A01 T03280152  RH  035%=      5-min Rain = 0
KDO1 150043Z 09005KT 33/15 A3006 RMK A01 T03280151  RH  035%=      5-min Rain = 0
KDO1 150044Z 08006KT 33/15 A3006 RMK A01 T03270152  RH  035%=      5-min Rain = 0
KDO1 150045Z 08006KT 33/15 A3006 RMK A01 T03270152  RH  035%=      5-min Rain = 0
KDO1 150046Z 09006KT 33/15 A3006 RMK A01 T03270151  RH  035%=      5-min Rain = 0
KDO1 150047Z 09006KT 33/15 A3006 RMK A01 T03270151  RH  035%=      5-min Rain = 0
KDO1 150048Z 09005KT 33/15 A3006 RMK A01 T03260151  RH  035%=      5-min Rain = 0
KDO1 150049Z 09005KT 33/15 A3006 RMK A01 T03260151  RH  035%=      5-min Rain = 0
KDO1 150050Z 09005KT 33/15 A3006 RMK A01 T03250151  RH  035%=      5-min Rain = 0
KDO1 150051Z 09004KT 33/15 A3006 RMK A01 T03250152  RH  035%=      5-min Rain = 0
KDO1 150052Z 09004KT 33/15 A3006 RMK A01 T03250152  RH  035%=      5-min Rain = 0
KDO1 150053Z 09004KT 32/15 A3006 RMK A01 T03240152  RH  035%=      5-min Rain = 0
KDO1 150054Z 09004KT 32/15 A3006 RMK A01 T03240152  RH  036%=      5-min Rain = 0
KDO1 150055Z 09003KT 32/15 A3006 RMK A01 T03240152  RH  036%=      5-min Rain = 0
KDO1 150056Z 08004KT 32/15 A3006 RMK A01 T03230153  RH  036%=      5-min Rain = 0
KDO1 150057Z 08004KT 32/15 A3006 RMK A01 T03230154  RH  036%=      5-min Rain = 0
KDO1 150058Z 07004KT 32/16 A3006 RMK A01 T03220156  RH  037%=      5-min Rain = 0
KDO1 150059Z 08004KT 32/16 A3006 RMK A01 T03220156  RH  037%=      5-min Rain = 0
KDO1 150100Z 08004KT 32/16 A3006 RMK A01 T03210157  RH  037%=      5-min Rain = 0
KDO1 150101Z 08005KT 32/16 A3006 RMK A01 T03210157  RH  037%=      5-min Rain = 0
KDO1 150102Z 09004KT 32/16 A3006 RMK A01 T03200157  RH  037%=      5-min Rain = 0
KDO1 150103Z 08004KT 32/16 A3006 RMK A01 T03190158  RH  038%=      5-min Rain = 0
KDO1 150104Z 09005KT 32/16 A3006 RMK A01 T03180158  RH  038%=      5-min Rain = 0
KDO1 150105Z 09005KT 32/16 A3006 RMK A01 T03170157  RH  038%=      5-min Rain = 0
KDO1 150106Z 09004KT 32/16 A3006 RMK A01 T03160158  RH  039%=      5-min Rain = 0
KDO1 150107Z 09004KT 32/16 A3006 RMK A01 T03150159  RH  039%=      5-min Rain = 0
KDO1 150108Z 09005KT 32/16 A3006 RMK A01 T03150159  RH  039%=      5-min Rain = 0
KDO1 150109Z 08004KT 31/16 A3007 RMK A01 T03140159  RH  039%=      5-min Rain = 0
KDO1 150110Z 09004KT 31/16 A3007 RMK A01 T03130160  RH  040%=      5-min Rain = 0
KDO1 150111Z 09004KT 31/16 A3007 RMK A01 T03120161  RH  040%=      5-min Rain = 0
KDO1 150112Z 09004KT 31/16 A3007 RMK A01 T03110161  RH  040%=      5-min Rain = 0
KDO1 150113Z 09003KT 31/16 A3007 RMK A01 T03100161  RH  041%=      5-min Rain = 0
KDO1 150114Z 09004KT 31/16 A3007 RMK A01 T03090161  RH  041%=      5-min Rain = 0
KDO1 150115Z 09003KT 31/16 A3007 RMK A01 T03080162  RH  041%=      5-min Rain = 0
KDO1 150116Z 09003KT 31/16 A3007 RMK A01 T03070162  RH  042%=      5-min Rain = 0
KDO1 150117Z 09003KT 31/16 A3007 RMK A01 T03070164  RH  042%=      5-min Rain = 0
KDO1 150118Z 09003KT 31/16 A3007 RMK A01 T03060164  RH  042%=      5-min Rain = 0
KDO1 150119Z 10003KT 31/17 A3007 RMK A01 T03050165  RH  043%=      5-min Rain = 0
KDO1 150120Z 10003KT 30/17 A3007 RMK A01 T03040165  RH  043%=      5-min Rain = 0
KDO1 150121Z 10003KT 30/17 A3007 RMK A01 T03030166  RH  044%=      5-min Rain = 0
KDO1 150122Z 10003KT 30/17 A3007 RMK A01 T03030166  RH  044%=      5-min Rain = 0
KDO1 150123Z 10003KT 30/17 A3007 RMK A01 T03010165  RH  044%=      5-min Rain = 0
KDO1 150124Z 10003KT 30/17 A3007 RMK A01 T03000165  RH  044%=      5-min Rain = 0
KDO1 150125Z 10003KT 30/17 A3007 RMK A01 T03000165  RH  044%=      5-min Rain = 0
KDO1 150126Z 10003KT 30/17 A3007 RMK A01 T02990165  RH  044%=      5-min Rain = 0
KDO1 150127Z 10003KT 30/17 A3007 RMK A01 T02980165  RH  045%=      5-min Rain = 0
KDO1 150128Z 10003KT 30/17 A3007 RMK A01 T02970166  RH  045%=      5-min Rain = 0
KDO1 150129Z 10003KT 30/16 A3007 RMK A01 T02960164  RH  045%=      5-min Rain = 0
KDO1 150130Z 10003KT 30/16 A3007 RMK A01 T02960163  RH  045%=      5-min Rain = 0
KDO1 150131Z 10003KT 30/16 A3007 RMK A01 T02950164  RH  045%=      5-min Rain = 0
KDO1 150132Z 10003KT 30/17 A3007 RMK A01 T02950165  RH  045%=      5-min Rain = 0
KDO1 150133Z 10003KT 30/17 A3008 RMK A01 T02950165  RH  046%=      5-min Rain = 0
KDO1 150134Z 10003KT 29/17 A3008 RMK A01 T02940165  RH  046%=      5-min Rain = 0
KDO1 150135Z 10003KT 29/16 A3008 RMK A01 T02930164  RH  046%=      5-min Rain = 0
KDO1 150136Z 10003KT 29/16 A3008 RMK A01 T02930164  RH  046%=      5-min Rain = 0
KDO1 150137Z 10003KT 29/17 A3008 RMK A01 T02930165  RH  046%=      5-min Rain = 0
KDO1 150138Z 10003KT 29/16 A3008 RMK A01 T02920164  RH  046%=      5-min Rain = 0
KDO1 150139Z 10003KT 29/16 A3008 RMK A01 T02920164  RH  046%=      5-min Rain = 0
KDO1 150140Z 10003KT 29/16 A3008 RMK A01 T02920163  RH  046%=      5-min Rain = 0
KDO1 150141Z 10003KT 29/16 A3008 RMK A01 T02920163  RH  046%=      5-min Rain = 0
KDO1 150142Z 10003KT 29/16 A3008 RMK A01 T02910163  RH  046%=      5-min Rain = 0
KDO1 150143Z 10003KT 29/16 A3008 RMK A01 T02910164  RH  046%=      5-min Rain = 0
KDO1 150144Z 10003KT 29/16 A3008 RMK A01 T02900163  RH  046%=      5-min Rain = 0
KDO1 150145Z 11003KT 29/16 A3008 RMK A01 T02900163  RH  046%=      5-min Rain = 0
KDO1 150146Z 11003KT 29/16 A3008 RMK A01 T02890163  RH  046%=      5-min Rain = 0
KDO1 150147Z 11003KT 29/16 A3008 RMK A01 T02890163  RH  046%=      5-min Rain = 0
KDO1 150148Z 12003KT 29/16 A3008 RMK A01 T02890163  RH  047%=      5-min Rain = 0
KDO1 150149Z 11003KT 29/16 A3008 RMK A01 T02880164  RH  047%=      5-min Rain = 0
KDO1 150150Z 12003KT 29/17 A3008 RMK A01 T02880166  RH  048%=      5-min Rain = 0
KDO1 150151Z 12003KT 29/17 A3008 RMK A01 T02870166  RH  048%=      5-min Rain = 0
KDO1 150152Z 11003KT 29/17 A3008 RMK A01 T02870166  RH  048%=      5-min Rain = 0
KDO1 150153Z 12003KT 29/17 A3008 RMK A01 T02870165  RH  048%=      5-min Rain = 0
KDO1 150154Z 12003KT 29/17 A3008 RMK A01 T02870165  RH  048%=      5-min Rain = 0
KDO1 150155Z 12003KT 29/17 A3008 RMK A01 T02860166  RH  048%=      5-min Rain = 0
KDO1 150156Z 12003KT 29/17 A3008 RMK A01 T02860167  RH  048%=      5-min Rain = 0
KDO1 150157Z 13003KT 29/17 A3008 RMK A01 T02860168  RH  049%=      5-min Rain = 0
KDO1 150158Z 13004KT 29/17 A3008 RMK A01 T02850169  RH  050%=      5-min Rain = 0
KDO1 150159Z 13004KT 28/17 A3008 RMK A01 T02830171  RH  050%=      5-min Rain = 0
KDO1 150200Z 13004KT 28/17 A3009 RMK A01 T02830171  RH  051%=      5-min Rain = 0
KDO1 150201Z 13004KT 28/17 A3009 RMK A01 T02820170  RH  051%=      5-min Rain = 0
KDO1 150202Z 13004KT 28/17 A3009 RMK A01 T02810171  RH  051%=      5-min Rain = 0
KDO1 150203Z 12004KT 28/17 A3009 RMK A01 T02800171  RH  051%=      5-min Rain = 0
KDO1 150204Z 12003KT 28/17 A3009 RMK A01 T02800170  RH  051%=      5-min Rain = 0
KDO1 150205Z 11003KT 28/17 A3009 RMK A01 T02790170  RH  051%=      5-min Rain = 0
KDO1 150206Z 12003KT 28/17 A3009 RMK A01 T02800169  RH  051%=      5-min Rain = 0
KDO1 150207Z 12003KT 28/17 A3009 RMK A01 T02790170  RH  051%=      5-min Rain = 0
KDO1 150208Z 11002KT 28/17 A3009 RMK A01 T02790171  RH  052%=      5-min Rain = 0
KDO1 150209Z 11003KT 28/17 A3009 RMK A01 T02780171  RH  052%=      5-min Rain = 0
KDO1 150210Z 11003KT 28/17 A3009 RMK A01 T02780173  RH  053%=      5-min Rain = 0
KDO1 150211Z 11004KT 28/17 A3009 RMK A01 T02770171  RH  052%=      5-min Rain = 0
KDO1 150212Z 11003KT 28/17 A3009 RMK A01 T02760171  RH  053%=      5-min Rain = 0
KDO1 150213Z 11004KT 28/17 A3009 RMK A01 T02760171  RH  053%=      5-min Rain = 0
KDO1 150214Z 11003KT 28/17 A3009 RMK A01 T02750171  RH  053%=      5-min Rain = 0
KDO1 150215Z 12004KT 28/17 A3009 RMK A01 T02750173  RH  054%=      5-min Rain = 0
KDO1 150216Z 12003KT 28/17 A3009 RMK A01 T02750173  RH  054%=      5-min Rain = 0
KDO1 150217Z 12004KT 28/17 A3009 RMK A01 T02750173  RH  054%=      5-min Rain = 0
KDO1 150218Z 13004KT 28/17 A3009 RMK A01 T02750173  RH  054%=      5-min Rain = 0
KDO1 150219Z 12004KT 28/17 A3009 RMK A01 T02750173  RH  054%=      5-min Rain = 0
KDO1 150220Z 12004KT 28/17 A3009 RMK A01 T02760174  RH  054%=      5-min Rain = 0
KDO1 150221Z 12004KT 28/18 A3009 RMK A01 T02760176  RH  054%=      5-min Rain = 0
KDO1 150222Z 12004KT 28/18 A3009 RMK A01 T02750176  RH  055%=      5-min Rain = 0
KDO1 150223Z 12004KT 28/18 A3009 RMK A01 T02750177  RH  055%=      5-min Rain = 0
KDO1 150224Z 12004KT 28/18 A3009 RMK A01 T02750177  RH  055%=      5-min Rain = 0
KDO1 150225Z 11004KT 27/18 A3009 RMK A01 T02740177  RH  055%=      5-min Rain = 0
KDO1 150226Z 11004KT 27/18 A301 RMK A01 T02740177  RH  055%=      5-min Rain = 0
KDO1 150227Z 11004KT 27/18 A301 RMK A01 T02740178  RH  056%=      5-min Rain = 0
KDO1 150228Z 11004KT 27/18 A301 RMK A01 T02730178  RH  056%=      5-min Rain = 0
KDO1 150229Z 11004KT 27/18 A301 RMK A01 T02730178  RH  056%=      5-min Rain = 0
KDO1 150230Z 11004KT 27/18 A301 RMK A01 T02730179  RH  056%=      5-min Rain = 0
KDO1 150231Z 11004KT 27/18 A301 RMK A01 T02730179  RH  057%=      5-min Rain = 0
KDO1 150232Z 11004KT 27/18 A301 RMK A01 T02720180  RH  057%=      5-min Rain = 0
KDO1 150233Z 11004KT 27/18 A301 RMK A01 T02720181  RH  057%=      5-min Rain = 0
KDO1 150234Z 11004KT 27/18 A3009 RMK A01 T02710181  RH  058%=      5-min Rain = 0
KDO1 150235Z 11004KT 27/18 A3009 RMK A01 T02710181  RH  058%=      5-min Rain = 0
KDO1 150236Z 11004KT 27/18 A301 RMK A01 T02710182  RH  058%=      5-min Rain = 0
KDO1 150237Z 11004KT 27/18 A301 RMK A01 T02710182  RH  058%=      5-min Rain = 0
KDO1 150238Z 11004KT 27/18 A301 RMK A01 T02700182  RH  059%=      5-min Rain = 0
KDO1 150239Z 11003KT 27/18 A301 RMK A01 T02700183  RH  059%=      5-min Rain = 0
KDO1 150240Z 11004KT 27/18 A301 RMK A01 T02700184  RH  059%=      5-min Rain = 0
KDO1 150241Z 10003KT 27/18 A301 RMK A01 T02690184  RH  060%=      5-min Rain = 0
KDO1 150242Z 10004KT 27/19 A301 RMK A01 T02690185  RH  060%=      5-min Rain = 0
KDO1 150243Z 10004KT 27/19 A301 RMK A01 T02680186  RH  060%=      5-min Rain = 0
KDO1 150244Z 10004KT 27/19 A301 RMK A01 T02680187  RH  061%=      5-min Rain = 0
KDO1 150245Z 10004KT 27/19 A301 RMK A01 T02680186  RH  061%=      5-min Rain = 0
KDO1 150246Z 11005KT 27/19 A301 RMK A01 T02680187  RH  061%=      5-min Rain = 0
KDO1 150247Z 11005KT 27/19 A301 RMK A01 T02680187  RH  061%=      5-min Rain = 0
KDO1 150248Z 11004KT 27/19 A301 RMK A01 T02680187  RH  061%=      5-min Rain = 0
KDO1 150249Z 11004KT 27/19 A301 RMK A01 T02680187  RH  061%=      5-min Rain = 0
KDO1 150250Z 11004KT 27/19 A301 RMK A01 T02680188  RH  061%=      5-min Rain = 0
KDO1 150251Z 11004KT 27/19 A301 RMK A01 T02680188  RH  062%=      5-min Rain = 0
KDO1 150252Z 11004KT 27/19 A301 RMK A01 T02680188  RH  062%=      5-min Rain = 0
KDO1 150253Z 11005KT 27/19 A301 RMK A01 T02680189  RH  062%=      5-min Rain = 0
KDO1 150254Z 12004KT 27/19 A301 RMK A01 T02680189  RH  062%=      5-min Rain = 0
KDO1 150255Z 12004KT 27/19 A3011 RMK A01 T02680189  RH  062%=      5-min Rain = 0
KDO1 150256Z 12004KT 27/19 A3011 RMK A01 T02680189  RH  062%=      5-min Rain = 0
KDO1 150257Z 11004KT 27/19 A3011 RMK A01 T02680189  RH  062%=      5-min Rain = 0
KDO1 150258Z 12004KT 27/19 A3011 RMK A01 T02670190  RH  062%=      5-min Rain = 0
KDO1 150259Z 13003KT 27/19 A3011 RMK A01 T02670190  RH  063%=      5-min Rain = 0
KDO1 150300Z 12003KT 27/19 A3011 RMK A01 T02670190  RH  063%=      5-min Rain = 0
KDO1 150301Z 13003KT 27/19 A3011 RMK A01 T02660190  RH  063%=      5-min Rain = 0
KDO1 150302Z 13003KT 27/19 A3011 RMK A01 T02660191  RH  063%=      5-min Rain = 0
KDO1 150303Z 13004KT 27/19 A3011 RMK A01 T02650191  RH  064%=      5-min Rain = 0
KDO1 150304Z 13003KT 27/19 A3011 RMK A01 T02650191  RH  064%=      5-min Rain = 0
KDO1 150305Z 12004KT 27/19 A3011 RMK A01 T02650191  RH  064%=      5-min Rain = 0
KDO1 150306Z 12004KT 26/19 A3011 RMK A01 T02640190  RH  064%=      5-min Rain = 0
KDO1 150307Z 12004KT 26/19 A3011 RMK A01 T02640191  RH  064%=      5-min Rain = 0
KDO1 150308Z 12004KT 26/19 A3011 RMK A01 T02640191  RH  064%=      5-min Rain = 0
KDO1 150309Z 12004KT 26/19 A3011 RMK A01 T02640191  RH  064%=      5-min Rain = 0
KDO1 150310Z 11003KT 26/19 A3011 RMK A01 T02640190  RH  064%=      5-min Rain = 0
KDO1 150311Z 11003KT 26/19 A3011 RMK A01 T02640191  RH  064%=      5-min Rain = 0
KDO1 150312Z 12003KT 26/19 A3011 RMK A01 T02640191  RH  064%=      5-min Rain = 0
KDO1 150313Z 12003KT 26/19 A3011 RMK A01 T02640191  RH  064%=      5-min Rain = 0
KDO1 150314Z 11003KT 26/19 A3011 RMK A01 T02640191  RH  064%=      5-min Rain = 0
KDO1 150315Z 12003KT 26/19 A3011 RMK A01 T02640191  RH  064%=      5-min Rain = 0
KDO1 150316Z 12003KT 26/19 A3011 RMK A01 T02640191  RH  064%=      5-min Rain = 0
KDO1 150317Z 12003KT 26/19 A3012 RMK A01 T02630191  RH  064%=      5-min Rain = 0
KDO1 150318Z 12004KT 26/19 A3012 RMK A01 T02640191  RH  065%=      5-min Rain = 0
KDO1 150319Z 11003KT 26/19 A3012 RMK A01 T02630192  RH  065%=      5-min Rain = 0
KDO1 150320Z 11003KT 26/19 A3012 RMK A01 T02630191  RH  064%=      5-min Rain = 0
KDO1 150321Z 11003KT 26/19 A3012 RMK A01 T02630191  RH  064%=      5-min Rain = 0
KDO1 150322Z 11003KT 26/19 A3012 RMK A01 T02630190  RH  064%=      5-min Rain = 0
KDO1 150323Z 11003KT 26/19 A3012 RMK A01 T02630191  RH  064%=      5-min Rain = 0
KDO1 150324Z 11003KT 26/19 A3012 RMK A01 T02640191  RH  064%=      5-min Rain = 0
KDO1 150325Z 11003KT 26/19 A3012 RMK A01 T02640191  RH  064%=      5-min Rain = 0
KDO1 150326Z 12004KT 26/19 A3012 RMK A01 T02640191  RH  064%=      5-min Rain = 0
KDO1 150327Z 11003KT 26/19 A3012 RMK A01 T02640191  RH  064%=      5-min Rain = 0
KDO1 150328Z 11004KT 26/19 A3012 RMK A01 T02640191  RH  064%=      5-min Rain = 0
KDO1 150329Z 11004KT 26/19 A3012 RMK A01 T02640191  RH  064%=      5-min Rain = 0
KDO1 150330Z 12004KT 26/19 A3012 RMK A01 T02640192  RH  065%=      5-min Rain = 0
KDO1 150331Z 12004KT 26/19 A3012 RMK A01 T02630191  RH  065%=      5-min Rain = 0
KDO1 150332Z 12004KT 26/19 A3012 RMK A01 T02630192  RH  065%=      5-min Rain = 0
KDO1 150333Z 12004KT 26/19 A3012 RMK A01 T02630192  RH  065%=      5-min Rain = 0
KDO1 150334Z 13004KT 26/19 A3012 RMK A01 T02620192  RH  065%=      5-min Rain = 0
KDO1 150335Z 13004KT 26/19 A3012 RMK A01 T02620192  RH  065%=      5-min Rain = 0
KDO1 150336Z 13004KT 26/19 A3012 RMK A01 T02620193  RH  066%=      5-min Rain = 0
KDO1 150337Z 13004KT 26/19 A3012 RMK A01 T02620193  RH  066%=      5-min Rain = 0
KDO1 150338Z 13003KT 26/19 A3012 RMK A01 T02610193  RH  066%=      5-min Rain = 0
KDO1 150339Z 13004KT 26/19 A3012 RMK A01 T02610192  RH  066%=      5-min Rain = 0
KDO1 150340Z 13003KT 26/19 A3012 RMK A01 T02610193  RH  066%=      5-min Rain = 0
KDO1 150341Z 13003KT 26/19 A3012 RMK A01 T02610193  RH  066%=      5-min Rain = 0
KDO1 150342Z 13003KT 26/19 A3012 RMK A01 T02610193  RH  066%=      5-min Rain = 0
KDO1 150343Z 13003KT 26/19 A3012 RMK A01 T02600193  RH  066%=      5-min Rain = 0
KDO1 150344Z 13004KT 26/19 A3012 RMK A01 T02600194  RH  067%=      5-min Rain = 0
KDO1 150345Z 13004KT 26/19 A3012 RMK A01 T02600194  RH  067%=      5-min Rain = 0
KDO1 150346Z 13004KT 26/19 A3012 RMK A01 T02600194  RH  067%=      5-min Rain = 0
KDO1 150347Z 13003KT 26/19 A3012 RMK A01 T02600194  RH  067%=      5-min Rain = 0
KDO1 150348Z 13003KT 26/20 A3013 RMK A01 T02590195  RH  068%=      5-min Rain = 0
KDO1 150349Z 13003KT 26/20 A3013 RMK A01 T02590195  RH  068%=      5-min Rain = 0
KDO1 150350Z 13003KT 26/20 A3013 RMK A01 T02580195  RH  068%=      5-min Rain = 0
KDO1 150351Z 12003KT 26/20 A3013 RMK A01 T02580195  RH  068%=      5-min Rain = 0
KDO1 150352Z 13003KT 26/20 A3013 RMK A01 T02570195  RH  069%=      5-min Rain = 0
KDO1 150353Z 12003KT 26/20 A3013 RMK A01 T02570195  RH  069%=      5-min Rain = 0
KDO1 150354Z 12003KT 26/20 A3013 RMK A01 T02560195  RH  069%=      5-min Rain = 0
KDO1 150355Z 12003KT 26/20 A3013 RMK A01 T02560195  RH  069%=      5-min Rain = 0
KDO1 150356Z 12003KT 26/20 A3013 RMK A01 T02560195  RH  069%=      5-min Rain = 0
KDO1 150357Z 12003KT 26/20 A3013 RMK A01 T02550195  RH  069%=      5-min Rain = 0
KDO1 150358Z 12003KT 26/20 A3013 RMK A01 T02550195  RH  069%=      5-min Rain = 0
KDO1 150359Z 12003KT 26/19 A3013 RMK A01 T02550194  RH  069%=      5-min Rain = 0
KDO1 150400Z 12002KT 26/19 A3013 RMK A01 T02550194  RH  069%=      5-min Rain = 0
KDO1 150401Z 12002KT 26/19 A3013 RMK A01 T02550194  RH  069%=      5-min Rain = 0
KDO1 150402Z 13003KT 26/19 A3013 RMK A01 T02550194  RH  069%=      5-min Rain = 0
KDO1 150403Z 13003KT 26/19 A3013 RMK A01 T02550194  RH  069%=      5-min Rain = 0
KDO1 150404Z 13003KT 26/20 A3013 RMK A01 T02550195  RH  069%=      5-min Rain = 0
KDO1 150405Z 13002KT 26/20 A3013 RMK A01 T02550195  RH  069%=      5-min Rain = 0
KDO1 150406Z 13003KT 26/20 A3013 RMK A01 T02550195  RH  069%=      5-min Rain = 0
KDO1 150407Z 13003KT 26/19 A3013 RMK A01 T02550194  RH  069%=      5-min Rain = 0
KDO1 150408Z 14003KT 26/19 A3013 RMK A01 T02550194  RH  069%=      5-min Rain = 0
KDO1 150409Z 14003KT 26/19 A3013 RMK A01 T02550194  RH  069%=      5-min Rain = 0
KDO1 150410Z 14003KT 26/19 A3013 RMK A01 T02550194  RH  069%=      5-min Rain = 0
KDO1 150411Z 14003KT 26/19 A3013 RMK A01 T02550193  RH  069%=      5-min Rain = 0
KDO1 150412Z 14003KT 26/19 A3013 RMK A01 T02550194  RH  069%=      5-min Rain = 0
KDO1 150413Z 14003KT 26/19 A3013 RMK A01 T02550194  RH  069%=      5-min Rain = 0
KDO1 150414Z 14003KT 26/19 A3013 RMK A01 T02550194  RH  069%=      5-min Rain = 0
KDO1 150415Z 15002KT 26/19 A3013 RMK A01 T02550194  RH  069%=      5-min Rain = 0
KDO1 150416Z 15002KT 26/19 A3013 RMK A01 T02550194  RH  069%=      5-min Rain = 0
KDO1 150417Z 15002KT 26/20 A3013 RMK A01 T02550195  RH  069%=      5-min Rain = 0
KDO1 150418Z 15002KT 26/20 A3013 RMK A01 T02550197  RH  070%=      5-min Rain = 0
KDO1 150419Z 15002KT 26/19 A3013 RMK A01 T02550194  RH  069%=      5-min Rain = 0
KDO1 150420Z 15002KT 26/19 A3013 RMK A01 T02550194  RH  069%=      5-min Rain = 0
KDO1 150421Z 15002KT 25/19 A3013 RMK A01 T02540194  RH  069%=      5-min Rain = 0
KDO1 150422Z 16002KT 26/19 A3013 RMK A01 T02550194  RH  069%=      5-min Rain = 0
KDO1 150423Z 17002KT 25/19 A3013 RMK A01 T02540192  RH  068%=      5-min Rain = 0
KDO1 150424Z 17002KT 26/19 A3013 RMK A01 T02550193  RH  069%=      5-min Rain = 0
KDO1 150425Z 17002KT 26/19 A3013 RMK A01 T02550193  RH  069%=      5-min Rain = 0
KDO1 150426Z 17002KT 25/19 A3014 RMK A01 T02540193  RH  069%=      5-min Rain = 0
KDO1 150427Z 18002KT 25/19 A3014 RMK A01 T02540193  RH  069%=      5-min Rain = 0
KDO1 150428Z 18002KT 26/19 A3014 RMK A01 T02550194  RH  069%=      5-min Rain = 0
KDO1 150429Z 18002KT 25/19 A3014 RMK A01 T02540193  RH  069%=      5-min Rain = 0
KDO1 150430Z 18002KT 26/19 A3014 RMK A01 T02550193  RH  069%=      5-min Rain = 0
KDO1 150431Z 18002KT 25/19 A3014 RMK A01 T02540192  RH  068%=      5-min Rain = 0
KDO1 150432Z 18002KT 26/19 A3014 RMK A01 T02550192  RH  068%=      5-min Rain = 0
KDO1 150433Z 17002KT 26/19 A3014 RMK A01 T02550192  RH  068%=      5-min Rain = 0
KDO1 150434Z 17002KT 26/19 A3014 RMK A01 T02550192  RH  068%=      5-min Rain = 0
KDO1 150435Z 17002KT 26/19 A3014 RMK A01 T02550192  RH  068%=      5-min Rain = 0
KDO1 150436Z 17002KT 26/19 A3014 RMK A01 T02550192  RH  068%=      5-min Rain = 0
KDO1 150437Z 17002KT 26/19 A3014 RMK A01 T02550193  RH  068%=      5-min Rain = 0
KDO1 150438Z 17002KT 26/19 A3014 RMK A01 T02550193  RH  069%=      5-min Rain = 0
KDO1 150439Z 17002KT 26/20 A3014 RMK A01 T02550195  RH  069%=      5-min Rain = 0
KDO1 150440Z 16002KT 26/20 A3014 RMK A01 T02550197  RH  070%=      5-min Rain = 0
KDO1 150441Z 17002KT 25/20 A3014 RMK A01 T02540197  RH  071%=      5-min Rain = 0
KDO1 150442Z 16002KT 25/20 A3014 RMK A01 T02530197  RH  071%=      5-min Rain = 0
KDO1 150443Z 17002KT 25/20 A3014 RMK A01 T02530196  RH  071%=      5-min Rain = 0
KDO1 150444Z 18002KT 25/20 A3014 RMK A01 T02520196  RH  071%=      5-min Rain = 0
KDO1 150445Z 19002KT 25/20 A3014 RMK A01 T02520197  RH  072%=      5-min Rain = 0
KDO1 150446Z 19002KT 25/20 A3014 RMK A01 T02500199  RH  073%=      5-min Rain = 0
KDO1 150447Z 18002KT 25/20 A3014 RMK A01 T02490200  RH  074%=      5-min Rain = 0
KDO1 150448Z 19001KT 25/20 A3014 RMK A01 T02480199  RH  074%=      5-min Rain = 0
KDO1 150449Z 18002KT 25/20 A3014 RMK A01 T02470199  RH  075%=      5-min Rain = 0
KDO1 150450Z 19001KT 25/20 A3014 RMK A01 T02460197  RH  074%=      5-min Rain = 0
KDO1 150451Z 19001KT 25/20 A3014 RMK A01 T02460197  RH  074%=      5-min Rain = 0
KDO1 150452Z 19001KT 25/20 A3014 RMK A01 T02460197  RH  074%=      5-min Rain = 0
KDO1 150453Z 19000KT 25/20 A3014 RMK A01 T02450198  RH  075%=      5-min Rain = 0
KDO1 150454Z 19000KT 25/20 A3014 RMK A01 T02450198  RH  075%=      5-min Rain = 0
KDO1 150455Z 20001KT 25/20 A3014 RMK A01 T02450199  RH  075%=      5-min Rain = 0
KDO1 150456Z 22000KT 25/20 A3014 RMK A01 T02450197  RH  075%=      5-min Rain = 0
KDO1 150457Z 20001KT 25/20 A3014 RMK A01 T02450198  RH  075%=      5-min Rain = 0
KDO1 150458Z 23000KT 25/20 A3014 RMK A01 T02450201  RH  077%=      5-min Rain = 0
KDO1 150459Z 23000KT 24/20 A3014 RMK A01 T02440201  RH  077%=      5-min Rain = 0

Page generated in 0.1216 seconds.